
<gpx xmlns="http://www.topografix.com/GPX/1/1" xmlns:gpxx="http://www.garmin.com/xmlschemas/GpxExtensions/v3" xmlns:xsi="http://www.w3.org/2001/XMLSchema-instance" version="1.1" creator="Adze - http://kobotsw.com/apps/adze" xsi:schemaLocation="http://www.topografix.com/GPX/1/1 http://www.topografix.com/GPX/1/1/gpx.xsd http://www.garmin.com/xmlschemas/GpxExtensions/v3 http://www.garmin.com/xmlschemas/GpxExtensionsv3.xsd">
    <metadata>
        <name>Untitled Document</name>
        <link href="http://www.garmin.com"></link>
        <time>2018-02-26T06:38:50.362Z</time>
    </metadata>
    <wpt lon="101.338531" lat="13.734936">
        <ele>19.000000</ele>
        <time>2014-12-13T05:30:52Z</time>
        <name>LannaResort</name>
        <sym>Lodging</sym>
        <extensions>
            <gpxx:WaypointExtension xmlns:gpxx="http://www.garmin.com/xmlschemas/GpxExtensions/v3">
                <gpxx:DisplayMode>SymbolAndName</gpxx:DisplayMode>
            </gpxx:WaypointExtension>
        </extensions>
    </wpt>
    <wpt lon="101.350302" lat="13.712727">
        <ele>10.000000</ele>
        <time>2014-12-14T03:48:22Z</time>
        <name>Water Sun</name>
        <sym>Drinking Water</sym>
        <extensions>
            <gpxx:WaypointExtension xmlns:gpxx="http://www.garmin.com/xmlschemas/GpxExtensions/v3">
                <gpxx:DisplayMode>SymbolAndName</gpxx:DisplayMode>
            </gpxx:WaypointExtension>
        </extensions>
    </wpt>
    <trk>
        <name>Sunday</name>
        <extensions>
            <gpxx:TrackExtension xmlns:gpxx="http://www.garmin.com/xmlschemas/GpxExtensions/v3">
                <gpxx:DisplayColor>Green</gpxx:DisplayColor>
            </gpxx:TrackExtension>
        </extensions>
        <trkseg>
            <trkpt lon="101.338554" lat="13.734779">
                <ele>11.670000</ele>
                <time>2014-12-14T03:01:24Z</time>
            </trkpt>
            <trkpt lon="101.338569" lat="13.734773">
                <ele>11.190000</ele>
                <time>2014-12-14T03:01:26Z</time>
            </trkpt>
            <trkpt lon="101.338589" lat="13.734850">
                <ele>10.710000</ele>
                <time>2014-12-14T03:01:35Z</time>
            </trkpt>
            <trkpt lon="101.338603" lat="13.735048">
                <ele>10.230000</ele>
                <time>2014-12-14T03:01:47Z</time>
            </trkpt>
            <trkpt lon="101.338522" lat="13.735103">
                <ele>10.230000</ele>
                <time>2014-12-14T03:01:52Z</time>
            </trkpt>
            <trkpt lon="101.338397" lat="13.735179">
                <ele>9.270000</ele>
                <time>2014-12-14T03:01:57Z</time>
            </trkpt>
            <trkpt lon="101.338397" lat="13.735209">
                <ele>9.270000</ele>
                <time>2014-12-14T03:01:58Z</time>
            </trkpt>
            <trkpt lon="101.338407" lat="13.735247">
                <ele>8.790000</ele>
                <time>2014-12-14T03:01:59Z</time>
            </trkpt>
            <trkpt lon="101.338609" lat="13.735861">
                <ele>5.910000</ele>
                <time>2014-12-14T03:02:16Z</time>
            </trkpt>
            <trkpt lon="101.338754" lat="13.736434">
                <ele>5.910000</ele>
                <time>2014-12-14T03:02:33Z</time>
            </trkpt>
            <trkpt lon="101.338693" lat="13.736765">
                <ele>5.420000</ele>
                <time>2014-12-14T03:02:43Z</time>
            </trkpt>
            <trkpt lon="101.338714" lat="13.736791">
                <ele>5.420000</ele>
                <time>2014-12-14T03:02:44Z</time>
            </trkpt>
            <trkpt lon="101.338740" lat="13.736819">
                <ele>5.420000</ele>
                <time>2014-12-14T03:02:45Z</time>
            </trkpt>
            <trkpt lon="101.339259" lat="13.737332">
                <ele>5.910000</ele>
                <time>2014-12-14T03:03:03Z</time>
            </trkpt>
            <trkpt lon="101.339886" lat="13.737958">
                <ele>6.870000</ele>
                <time>2014-12-14T03:03:25Z</time>
            </trkpt>
            <trkpt lon="101.339966" lat="13.738023">
                <ele>6.870000</ele>
                <time>2014-12-14T03:03:28Z</time>
            </trkpt>
            <trkpt lon="101.340001" lat="13.738020">
                <ele>6.870000</ele>
                <time>2014-12-14T03:03:29Z</time>
            </trkpt>
            <trkpt lon="101.340030" lat="13.738002">
                <ele>6.870000</ele>
                <time>2014-12-14T03:03:30Z</time>
            </trkpt>
            <trkpt lon="101.340054" lat="13.737972">
                <ele>6.390000</ele>
                <time>2014-12-14T03:03:31Z</time>
            </trkpt>
            <trkpt lon="101.340075" lat="13.737935">
                <ele>6.390000</ele>
                <time>2014-12-14T03:03:32Z</time>
            </trkpt>
            <trkpt lon="101.340093" lat="13.737897">
                <ele>5.910000</ele>
                <time>2014-12-14T03:03:33Z</time>
            </trkpt>
            <trkpt lon="101.340107" lat="13.737855">
                <ele>5.910000</ele>
                <time>2014-12-14T03:03:34Z</time>
            </trkpt>
            <trkpt lon="101.340159" lat="13.737635">
                <ele>5.420000</ele>
                <time>2014-12-14T03:03:39Z</time>
            </trkpt>
            <trkpt lon="101.340148" lat="13.737224">
                <ele>5.420000</ele>
                <time>2014-12-14T03:03:48Z</time>
            </trkpt>
            <trkpt lon="101.340145" lat="13.737177">
                <ele>5.420000</ele>
                <time>2014-12-14T03:03:49Z</time>
            </trkpt>
            <trkpt lon="101.340119" lat="13.736851">
                <ele>5.910000</ele>
                <time>2014-12-14T03:03:56Z</time>
            </trkpt>
            <trkpt lon="101.340111" lat="13.736806">
                <ele>5.910000</ele>
                <time>2014-12-14T03:03:57Z</time>
            </trkpt>
            <trkpt lon="101.340028" lat="13.736069">
                <ele>5.910000</ele>
                <time>2014-12-14T03:04:13Z</time>
            </trkpt>
            <trkpt lon="101.339979" lat="13.735363">
                <ele>5.910000</ele>
                <time>2014-12-14T03:04:28Z</time>
            </trkpt>
            <trkpt lon="101.339976" lat="13.735272">
                <ele>5.910000</ele>
                <time>2014-12-14T03:04:30Z</time>
            </trkpt>
            <trkpt lon="101.339970" lat="13.735228">
                <ele>5.910000</ele>
                <time>2014-12-14T03:04:31Z</time>
            </trkpt>
            <trkpt lon="101.339839" lat="13.734386">
                <ele>4.460000</ele>
                <time>2014-12-14T03:04:49Z</time>
            </trkpt>
            <trkpt lon="101.339775" lat="13.733835">
                <ele>3.980000</ele>
                <time>2014-12-14T03:05:01Z</time>
            </trkpt>
            <trkpt lon="101.339817" lat="13.733616">
                <ele>4.940000</ele>
                <time>2014-12-14T03:05:07Z</time>
            </trkpt>
            <trkpt lon="101.339836" lat="13.733602">
                <ele>5.420000</ele>
                <time>2014-12-14T03:05:08Z</time>
            </trkpt>
            <trkpt lon="101.339861" lat="13.733594">
                <ele>5.420000</ele>
                <time>2014-12-14T03:05:09Z</time>
            </trkpt>
            <trkpt lon="101.339890" lat="13.733589">
                <ele>5.910000</ele>
                <time>2014-12-14T03:05:10Z</time>
            </trkpt>
            <trkpt lon="101.339923" lat="13.733588">
                <ele>6.390000</ele>
                <time>2014-12-14T03:05:11Z</time>
            </trkpt>
            <trkpt lon="101.340419" lat="13.733504">
                <ele>6.870000</ele>
                <time>2014-12-14T03:05:23Z</time>
            </trkpt>
            <trkpt lon="101.340992" lat="13.733434">
                <ele>7.830000</ele>
                <time>2014-12-14T03:05:37Z</time>
            </trkpt>
            <trkpt lon="101.341201" lat="13.733370">
                <ele>8.310000</ele>
                <time>2014-12-14T03:05:48Z</time>
            </trkpt>
            <trkpt lon="101.341286" lat="13.733270">
                <ele>7.350000</ele>
                <time>2014-12-14T03:06:00Z</time>
            </trkpt>
            <trkpt lon="101.341294" lat="13.733254">
                <ele>7.830000</ele>
                <time>2014-12-14T03:06:01Z</time>
            </trkpt>
            <trkpt lon="101.341307" lat="13.733229">
                <ele>7.830000</ele>
                <time>2014-12-14T03:06:02Z</time>
            </trkpt>
            <trkpt lon="101.341540" lat="13.732783">
                <ele>7.350000</ele>
                <time>2014-12-14T03:06:13Z</time>
            </trkpt>
            <trkpt lon="101.341835" lat="13.732231">
                <ele>6.870000</ele>
                <time>2014-12-14T03:06:27Z</time>
            </trkpt>
            <trkpt lon="101.341864" lat="13.732147">
                <ele>7.350000</ele>
                <time>2014-12-14T03:06:29Z</time>
            </trkpt>
            <trkpt lon="101.341866" lat="13.732102">
                <ele>7.350000</ele>
                <time>2014-12-14T03:06:30Z</time>
            </trkpt>
            <trkpt lon="101.341849" lat="13.732063">
                <ele>7.350000</ele>
                <time>2014-12-14T03:06:31Z</time>
            </trkpt>
            <trkpt lon="101.341818" lat="13.732035">
                <ele>6.870000</ele>
                <time>2014-12-14T03:06:32Z</time>
            </trkpt>
            <trkpt lon="101.341780" lat="13.732019">
                <ele>7.350000</ele>
                <time>2014-12-14T03:06:33Z</time>
            </trkpt>
            <trkpt lon="101.341738" lat="13.732013">
                <ele>6.870000</ele>
                <time>2014-12-14T03:06:34Z</time>
            </trkpt>
            <trkpt lon="101.341694" lat="13.732010">
                <ele>6.870000</ele>
                <time>2014-12-14T03:06:35Z</time>
            </trkpt>
            <trkpt lon="101.341646" lat="13.732006">
                <ele>6.870000</ele>
                <time>2014-12-14T03:06:36Z</time>
            </trkpt>
            <trkpt lon="101.341323" lat="13.731953">
                <ele>7.350000</ele>
                <time>2014-12-14T03:06:43Z</time>
            </trkpt>
            <trkpt lon="101.341297" lat="13.731925">
                <ele>7.350000</ele>
                <time>2014-12-14T03:06:44Z</time>
            </trkpt>
            <trkpt lon="101.341292" lat="13.731887">
                <ele>7.350000</ele>
                <time>2014-12-14T03:06:45Z</time>
            </trkpt>
            <trkpt lon="101.341304" lat="13.731844">
                <ele>7.350000</ele>
                <time>2014-12-14T03:06:46Z</time>
            </trkpt>
            <trkpt lon="101.341327" lat="13.731801">
                <ele>6.870000</ele>
                <time>2014-12-14T03:06:47Z</time>
            </trkpt>
            <trkpt lon="101.341355" lat="13.731756">
                <ele>6.870000</ele>
                <time>2014-12-14T03:06:48Z</time>
            </trkpt>
            <trkpt lon="101.341473" lat="13.731569">
                <ele>5.910000</ele>
                <time>2014-12-14T03:06:52Z</time>
            </trkpt>
            <trkpt lon="101.341838" lat="13.731155">
                <ele>5.910000</ele>
                <time>2014-12-14T03:07:02Z</time>
            </trkpt>
            <trkpt lon="101.341962" lat="13.731036">
                <ele>5.910000</ele>
                <time>2014-12-14T03:07:05Z</time>
            </trkpt>
            <trkpt lon="101.341994" lat="13.730988">
                <ele>5.910000</ele>
                <time>2014-12-14T03:07:06Z</time>
            </trkpt>
            <trkpt lon="101.342013" lat="13.730935">
                <ele>5.910000</ele>
                <time>2014-12-14T03:07:07Z</time>
            </trkpt>
            <trkpt lon="101.342023" lat="13.730880">
                <ele>5.910000</ele>
                <time>2014-12-14T03:07:08Z</time>
            </trkpt>
            <trkpt lon="101.342031" lat="13.730824">
                <ele>5.910000</ele>
                <time>2014-12-14T03:07:09Z</time>
            </trkpt>
            <trkpt lon="101.342061" lat="13.730658">
                <ele>6.390000</ele>
                <time>2014-12-14T03:07:12Z</time>
            </trkpt>
            <trkpt lon="101.342081" lat="13.730605">
                <ele>5.910000</ele>
                <time>2014-12-14T03:07:13Z</time>
            </trkpt>
            <trkpt lon="101.342106" lat="13.730554">
                <ele>5.910000</ele>
                <time>2014-12-14T03:07:14Z</time>
            </trkpt>
            <trkpt lon="101.342137" lat="13.730508">
                <ele>5.910000</ele>
                <time>2014-12-14T03:07:15Z</time>
            </trkpt>
            <trkpt lon="101.342173" lat="13.730467">
                <ele>5.910000</ele>
                <time>2014-12-14T03:07:16Z</time>
            </trkpt>
            <trkpt lon="101.342213" lat="13.730431">
                <ele>5.910000</ele>
                <time>2014-12-14T03:07:17Z</time>
            </trkpt>
            <trkpt lon="101.342256" lat="13.730401">
                <ele>5.910000</ele>
                <time>2014-12-14T03:07:18Z</time>
            </trkpt>
            <trkpt lon="101.342301" lat="13.730380">
                <ele>5.910000</ele>
                <time>2014-12-14T03:07:19Z</time>
            </trkpt>
            <trkpt lon="101.342346" lat="13.730372">
                <ele>5.420000</ele>
                <time>2014-12-14T03:07:20Z</time>
            </trkpt>
            <trkpt lon="101.342383" lat="13.730376">
                <ele>5.420000</ele>
                <time>2014-12-14T03:07:21Z</time>
            </trkpt>
            <trkpt lon="101.342410" lat="13.730384">
                <ele>5.420000</ele>
                <time>2014-12-14T03:07:22Z</time>
            </trkpt>
            <trkpt lon="101.342429" lat="13.730394">
                <ele>4.940000</ele>
                <time>2014-12-14T03:07:23Z</time>
            </trkpt>
            <trkpt lon="101.342446" lat="13.730410">
                <ele>4.940000</ele>
                <time>2014-12-14T03:07:24Z</time>
            </trkpt>
            <trkpt lon="101.342465" lat="13.730430">
                <ele>4.940000</ele>
                <time>2014-12-14T03:07:25Z</time>
            </trkpt>
            <trkpt lon="101.342838" lat="13.730684">
                <ele>4.940000</ele>
                <time>2014-12-14T03:07:36Z</time>
            </trkpt>
            <trkpt lon="101.343513" lat="13.730963">
                <ele>5.910000</ele>
                <time>2014-12-14T03:07:51Z</time>
            </trkpt>
            <trkpt lon="101.344459" lat="13.731245">
                <ele>5.910000</ele>
                <time>2014-12-14T03:08:10Z</time>
            </trkpt>
            <trkpt lon="101.345446" lat="13.731401">
                <ele>6.870000</ele>
                <time>2014-12-14T03:08:30Z</time>
            </trkpt>
            <trkpt lon="101.346234" lat="13.731449">
                <ele>6.870000</ele>
                <time>2014-12-14T03:08:45Z</time>
            </trkpt>
            <trkpt lon="101.346440" lat="13.731443">
                <ele>6.870000</ele>
                <time>2014-12-14T03:08:51Z</time>
            </trkpt>
            <trkpt lon="101.346465" lat="13.731416">
                <ele>6.870000</ele>
                <time>2014-12-14T03:08:52Z</time>
            </trkpt>
            <trkpt lon="101.346480" lat="13.731374">
                <ele>6.870000</ele>
                <time>2014-12-14T03:08:53Z</time>
            </trkpt>
            <trkpt lon="101.346671" lat="13.730558">
                <ele>6.870000</ele>
                <time>2014-12-14T03:09:09Z</time>
            </trkpt>
            <trkpt lon="101.346906" lat="13.729430">
                <ele>7.350000</ele>
                <time>2014-12-14T03:09:29Z</time>
            </trkpt>
            <trkpt lon="101.346921" lat="13.728579">
                <ele>6.870000</ele>
                <time>2014-12-14T03:09:44Z</time>
            </trkpt>
            <trkpt lon="101.347221" lat="13.727794">
                <ele>6.390000</ele>
                <time>2014-12-14T03:09:59Z</time>
            </trkpt>
            <trkpt lon="101.347756" lat="13.726851">
                <ele>7.350000</ele>
                <time>2014-12-14T03:10:18Z</time>
            </trkpt>
            <trkpt lon="101.348061" lat="13.726321">
                <ele>6.870000</ele>
                <time>2014-12-14T03:10:29Z</time>
            </trkpt>
            <trkpt lon="101.348554" lat="13.725502">
                <ele>6.870000</ele>
                <time>2014-12-14T03:10:46Z</time>
            </trkpt>
            <trkpt lon="101.349063" lat="13.724930">
                <ele>6.870000</ele>
                <time>2014-12-14T03:11:01Z</time>
            </trkpt>
            <trkpt lon="101.349313" lat="13.724748">
                <ele>7.830000</ele>
                <time>2014-12-14T03:11:09Z</time>
            </trkpt>
            <trkpt lon="101.349354" lat="13.724729">
                <ele>8.310000</ele>
                <time>2014-12-14T03:11:10Z</time>
            </trkpt>
            <trkpt lon="101.349396" lat="13.724713">
                <ele>8.310000</ele>
                <time>2014-12-14T03:11:11Z</time>
            </trkpt>
            <trkpt lon="101.349533" lat="13.724677">
                <ele>8.310000</ele>
                <time>2014-12-14T03:11:14Z</time>
            </trkpt>
            <trkpt lon="101.349582" lat="13.724671">
                <ele>8.790000</ele>
                <time>2014-12-14T03:11:15Z</time>
            </trkpt>
            <trkpt lon="101.350713" lat="13.724638">
                <ele>7.830000</ele>
                <time>2014-12-14T03:11:35Z</time>
            </trkpt>
            <trkpt lon="101.351840" lat="13.724605">
                <ele>7.830000</ele>
                <time>2014-12-14T03:11:54Z</time>
            </trkpt>
            <trkpt lon="101.352519" lat="13.724577">
                <ele>8.310000</ele>
                <time>2014-12-14T03:12:06Z</time>
            </trkpt>
            <trkpt lon="101.352576" lat="13.724572">
                <ele>8.310000</ele>
                <time>2014-12-14T03:12:07Z</time>
            </trkpt>
            <trkpt lon="101.353500" lat="13.724498">
                <ele>8.310000</ele>
                <time>2014-12-14T03:12:24Z</time>
            </trkpt>
            <trkpt lon="101.353537" lat="13.724520">
                <ele>8.310000</ele>
                <time>2014-12-14T03:12:25Z</time>
            </trkpt>
            <trkpt lon="101.353551" lat="13.724554">
                <ele>7.830000</ele>
                <time>2014-12-14T03:12:26Z</time>
            </trkpt>
            <trkpt lon="101.353557" lat="13.724599">
                <ele>7.830000</ele>
                <time>2014-12-14T03:12:27Z</time>
            </trkpt>
            <trkpt lon="101.353561" lat="13.724646">
                <ele>7.350000</ele>
                <time>2014-12-14T03:12:28Z</time>
            </trkpt>
            <trkpt lon="101.353669" lat="13.725412">
                <ele>5.910000</ele>
                <time>2014-12-14T03:12:42Z</time>
            </trkpt>
            <trkpt lon="101.353668" lat="13.725466">
                <ele>5.910000</ele>
                <time>2014-12-14T03:12:43Z</time>
            </trkpt>
            <trkpt lon="101.353657" lat="13.725518">
                <ele>6.390000</ele>
                <time>2014-12-14T03:12:44Z</time>
            </trkpt>
            <trkpt lon="101.353632" lat="13.725563">
                <ele>6.390000</ele>
                <time>2014-12-14T03:12:45Z</time>
            </trkpt>
            <trkpt lon="101.353596" lat="13.725603">
                <ele>6.390000</ele>
                <time>2014-12-14T03:12:46Z</time>
            </trkpt>
            <trkpt lon="101.353556" lat="13.725639">
                <ele>6.870000</ele>
                <time>2014-12-14T03:12:47Z</time>
            </trkpt>
            <trkpt lon="101.353512" lat="13.725672">
                <ele>6.870000</ele>
                <time>2014-12-14T03:12:48Z</time>
            </trkpt>
            <trkpt lon="101.353466" lat="13.725701">
                <ele>6.870000</ele>
                <time>2014-12-14T03:12:49Z</time>
            </trkpt>
            <trkpt lon="101.353089" lat="13.725946">
                <ele>8.790000</ele>
                <time>2014-12-14T03:12:57Z</time>
            </trkpt>
            <trkpt lon="101.353052" lat="13.725990">
                <ele>8.790000</ele>
                <time>2014-12-14T03:12:58Z</time>
            </trkpt>
            <trkpt lon="101.353022" lat="13.726037">
                <ele>8.790000</ele>
                <time>2014-12-14T03:12:59Z</time>
            </trkpt>
            <trkpt lon="101.352999" lat="13.726085">
                <ele>9.270000</ele>
                <time>2014-12-14T03:13:00Z</time>
            </trkpt>
            <trkpt lon="101.352985" lat="13.726127">
                <ele>9.270000</ele>
                <time>2014-12-14T03:13:01Z</time>
            </trkpt>
            <trkpt lon="101.352976" lat="13.726165">
                <ele>9.270000</ele>
                <time>2014-12-14T03:13:02Z</time>
            </trkpt>
            <trkpt lon="101.352971" lat="13.726198">
                <ele>9.750000</ele>
                <time>2014-12-14T03:13:03Z</time>
            </trkpt>
            <trkpt lon="101.352970" lat="13.726227">
                <ele>9.750000</ele>
                <time>2014-12-14T03:13:04Z</time>
            </trkpt>
            <trkpt lon="101.352972" lat="13.726252">
                <ele>9.750000</ele>
                <time>2014-12-14T03:13:05Z</time>
            </trkpt>
            <trkpt lon="101.352975" lat="13.726276">
                <ele>9.750000</ele>
                <time>2014-12-14T03:13:06Z</time>
            </trkpt>
            <trkpt lon="101.352984" lat="13.726377">
                <ele>11.190000</ele>
                <time>2014-12-14T03:13:19Z</time>
            </trkpt>
            <trkpt lon="101.353010" lat="13.726353">
                <ele>11.670000</ele>
                <time>2014-12-14T03:13:28Z</time>
            </trkpt>
            <trkpt lon="101.353011" lat="13.726330">
                <ele>11.190000</ele>
                <time>2014-12-14T03:13:29Z</time>
            </trkpt>
            <trkpt lon="101.353013" lat="13.726302">
                <ele>11.190000</ele>
                <time>2014-12-14T03:13:30Z</time>
            </trkpt>
            <trkpt lon="101.353018" lat="13.726139">
                <ele>9.750000</ele>
                <time>2014-12-14T03:13:34Z</time>
            </trkpt>
            <trkpt lon="101.353027" lat="13.726094">
                <ele>9.750000</ele>
                <time>2014-12-14T03:13:35Z</time>
            </trkpt>
            <trkpt lon="101.353044" lat="13.726050">
                <ele>9.750000</ele>
                <time>2014-12-14T03:13:36Z</time>
            </trkpt>
            <trkpt lon="101.353069" lat="13.726007">
                <ele>9.750000</ele>
                <time>2014-12-14T03:13:37Z</time>
            </trkpt>
            <trkpt lon="101.353098" lat="13.725967">
                <ele>9.750000</ele>
                <time>2014-12-14T03:13:38Z</time>
            </trkpt>
            <trkpt lon="101.353131" lat="13.725928">
                <ele>9.750000</ele>
                <time>2014-12-14T03:13:39Z</time>
            </trkpt>
            <trkpt lon="101.353169" lat="13.725896">
                <ele>9.750000</ele>
                <time>2014-12-14T03:13:40Z</time>
            </trkpt>
            <trkpt lon="101.353693" lat="13.725495">
                <ele>8.790000</ele>
                <time>2014-12-14T03:13:56Z</time>
            </trkpt>
            <trkpt lon="101.353648" lat="13.725084">
                <ele>9.270000</ele>
                <time>2014-12-14T03:14:10Z</time>
            </trkpt>
            <trkpt lon="101.353581" lat="13.724690">
                <ele>7.350000</ele>
                <time>2014-12-14T03:14:24Z</time>
            </trkpt>
            <trkpt lon="101.353556" lat="13.724528">
                <ele>8.310000</ele>
                <time>2014-12-14T03:14:35Z</time>
            </trkpt>
            <trkpt lon="101.353566" lat="13.724510">
                <ele>7.830000</ele>
                <time>2014-12-14T03:14:36Z</time>
            </trkpt>
            <trkpt lon="101.353581" lat="13.724497">
                <ele>8.310000</ele>
                <time>2014-12-14T03:14:37Z</time>
            </trkpt>
            <trkpt lon="101.353598" lat="13.724488">
                <ele>8.310000</ele>
                <time>2014-12-14T03:14:38Z</time>
            </trkpt>
            <trkpt lon="101.353618" lat="13.724483">
                <ele>8.310000</ele>
                <time>2014-12-14T03:14:39Z</time>
            </trkpt>
            <trkpt lon="101.354012" lat="13.724453">
                <ele>10.710000</ele>
                <time>2014-12-14T03:14:49Z</time>
            </trkpt>
            <trkpt lon="101.354914" lat="13.724314">
                <ele>11.670000</ele>
                <time>2014-12-14T03:15:07Z</time>
            </trkpt>
            <trkpt lon="101.355806" lat="13.724226">
                <ele>10.710000</ele>
                <time>2014-12-14T03:15:23Z</time>
            </trkpt>
            <trkpt lon="101.356836" lat="13.724291">
                <ele>10.230000</ele>
                <time>2014-12-14T03:15:41Z</time>
            </trkpt>
            <trkpt lon="101.356952" lat="13.724296">
                <ele>10.230000</ele>
                <time>2014-12-14T03:15:43Z</time>
            </trkpt>
            <trkpt lon="101.358019" lat="13.724427">
                <ele>7.350000</ele>
                <time>2014-12-14T03:16:01Z</time>
            </trkpt>
            <trkpt lon="101.358787" lat="13.724609">
                <ele>6.870000</ele>
                <time>2014-12-14T03:16:15Z</time>
            </trkpt>
            <trkpt lon="101.358936" lat="13.724640">
                <ele>7.350000</ele>
                <time>2014-12-14T03:16:18Z</time>
            </trkpt>
            <trkpt lon="101.358983" lat="13.724639">
                <ele>7.350000</ele>
                <time>2014-12-14T03:16:19Z</time>
            </trkpt>
            <trkpt lon="101.359026" lat="13.724621">
                <ele>6.870000</ele>
                <time>2014-12-14T03:16:20Z</time>
            </trkpt>
            <trkpt lon="101.359059" lat="13.724590">
                <ele>6.870000</ele>
                <time>2014-12-14T03:16:21Z</time>
            </trkpt>
            <trkpt lon="101.359082" lat="13.724552">
                <ele>6.870000</ele>
                <time>2014-12-14T03:16:22Z</time>
            </trkpt>
            <trkpt lon="101.359106" lat="13.724507">
                <ele>6.390000</ele>
                <time>2014-12-14T03:16:23Z</time>
            </trkpt>
            <trkpt lon="101.359518" lat="13.723792">
                <ele>5.910000</ele>
                <time>2014-12-14T03:16:38Z</time>
            </trkpt>
            <trkpt lon="101.360175" lat="13.723162">
                <ele>6.390000</ele>
                <time>2014-12-14T03:16:55Z</time>
            </trkpt>
            <trkpt lon="101.360804" lat="13.722560">
                <ele>6.870000</ele>
                <time>2014-12-14T03:17:11Z</time>
            </trkpt>
            <trkpt lon="101.360828" lat="13.722511">
                <ele>6.870000</ele>
                <time>2014-12-14T03:17:12Z</time>
            </trkpt>
            <trkpt lon="101.360849" lat="13.722460">
                <ele>6.870000</ele>
                <time>2014-12-14T03:17:13Z</time>
            </trkpt>
            <trkpt lon="101.360871" lat="13.722409">
                <ele>6.870000</ele>
                <time>2014-12-14T03:17:14Z</time>
            </trkpt>
            <trkpt lon="101.360973" lat="13.722217">
                <ele>6.390000</ele>
                <time>2014-12-14T03:17:18Z</time>
            </trkpt>
            <trkpt lon="101.361008" lat="13.722178">
                <ele>6.390000</ele>
                <time>2014-12-14T03:17:19Z</time>
            </trkpt>
            <trkpt lon="101.361048" lat="13.722147">
                <ele>6.390000</ele>
                <time>2014-12-14T03:17:20Z</time>
            </trkpt>
            <trkpt lon="101.361093" lat="13.722125">
                <ele>6.390000</ele>
                <time>2014-12-14T03:17:21Z</time>
            </trkpt>
            <trkpt lon="101.361141" lat="13.722110">
                <ele>6.390000</ele>
                <time>2014-12-14T03:17:22Z</time>
            </trkpt>
            <trkpt lon="101.361188" lat="13.722098">
                <ele>6.390000</ele>
                <time>2014-12-14T03:17:23Z</time>
            </trkpt>
            <trkpt lon="101.361237" lat="13.722088">
                <ele>6.390000</ele>
                <time>2014-12-14T03:17:24Z</time>
            </trkpt>
            <trkpt lon="101.361558" lat="13.722018">
                <ele>7.350000</ele>
                <time>2014-12-14T03:17:30Z</time>
            </trkpt>
            <trkpt lon="101.361609" lat="13.721994">
                <ele>7.350000</ele>
                <time>2014-12-14T03:17:31Z</time>
            </trkpt>
            <trkpt lon="101.361660" lat="13.721966">
                <ele>7.350000</ele>
                <time>2014-12-14T03:17:32Z</time>
            </trkpt>
            <trkpt lon="101.362628" lat="13.721453">
                <ele>6.390000</ele>
                <time>2014-12-14T03:17:51Z</time>
            </trkpt>
            <trkpt lon="101.363538" lat="13.721182">
                <ele>7.350000</ele>
                <time>2014-12-14T03:18:07Z</time>
            </trkpt>
            <trkpt lon="101.364511" lat="13.720881">
                <ele>8.310000</ele>
                <time>2014-12-14T03:18:24Z</time>
            </trkpt>
            <trkpt lon="101.364870" lat="13.720760">
                <ele>8.790000</ele>
                <time>2014-12-14T03:18:30Z</time>
            </trkpt>
            <trkpt lon="101.364925" lat="13.720730">
                <ele>8.790000</ele>
                <time>2014-12-14T03:18:31Z</time>
            </trkpt>
            <trkpt lon="101.364977" lat="13.720696">
                <ele>8.790000</ele>
                <time>2014-12-14T03:18:32Z</time>
            </trkpt>
            <trkpt lon="101.365026" lat="13.720656">
                <ele>8.790000</ele>
                <time>2014-12-14T03:18:33Z</time>
            </trkpt>
            <trkpt lon="101.365070" lat="13.720612">
                <ele>8.310000</ele>
                <time>2014-12-14T03:18:34Z</time>
            </trkpt>
            <trkpt lon="101.365111" lat="13.720565">
                <ele>8.310000</ele>
                <time>2014-12-14T03:18:35Z</time>
            </trkpt>
            <trkpt lon="101.365860" lat="13.719640">
                <ele>7.350000</ele>
                <time>2014-12-14T03:18:54Z</time>
            </trkpt>
            <trkpt lon="101.366710" lat="13.718887">
                <ele>7.830000</ele>
                <time>2014-12-14T03:19:13Z</time>
            </trkpt>
            <trkpt lon="101.367295" lat="13.718356">
                <ele>7.350000</ele>
                <time>2014-12-14T03:19:29Z</time>
            </trkpt>
            <trkpt lon="101.367322" lat="13.718312">
                <ele>6.390000</ele>
                <time>2014-12-14T03:19:36Z</time>
            </trkpt>
            <trkpt lon="101.367310" lat="13.718315">
                <ele>6.390000</ele>
                <time>2014-12-14T03:19:37Z</time>
            </trkpt>
            <trkpt lon="101.367300" lat="13.718323">
                <ele>6.390000</ele>
                <time>2014-12-14T03:19:38Z</time>
            </trkpt>
            <trkpt lon="101.367291" lat="13.718336">
                <ele>6.390000</ele>
                <time>2014-12-14T03:19:39Z</time>
            </trkpt>
            <trkpt lon="101.367278" lat="13.718352">
                <ele>6.390000</ele>
                <time>2014-12-14T03:19:40Z</time>
            </trkpt>
            <trkpt lon="101.366939" lat="13.718668">
                <ele>6.870000</ele>
                <time>2014-12-14T03:19:53Z</time>
            </trkpt>
            <trkpt lon="101.366672" lat="13.718891">
                <ele>7.350000</ele>
                <time>2014-12-14T03:20:06Z</time>
            </trkpt>
            <trkpt lon="101.366680" lat="13.718893">
                <ele>8.310000</ele>
                <time>2014-12-14T03:20:33Z</time>
            </trkpt>
            <trkpt lon="101.366719" lat="13.718875">
                <ele>7.830000</ele>
                <time>2014-12-14T03:20:41Z</time>
            </trkpt>
            <trkpt lon="101.366729" lat="13.718869">
                <ele>7.830000</ele>
                <time>2014-12-14T03:20:42Z</time>
            </trkpt>
            <trkpt lon="101.366740" lat="13.718860">
                <ele>7.830000</ele>
                <time>2014-12-14T03:20:43Z</time>
            </trkpt>
            <trkpt lon="101.366754" lat="13.718847">
                <ele>7.350000</ele>
                <time>2014-12-14T03:20:44Z</time>
            </trkpt>
            <trkpt lon="101.366770" lat="13.718832">
                <ele>7.350000</ele>
                <time>2014-12-14T03:20:45Z</time>
            </trkpt>
            <trkpt lon="101.366787" lat="13.718813">
                <ele>6.870000</ele>
                <time>2014-12-14T03:20:46Z</time>
            </trkpt>
            <trkpt lon="101.367171" lat="13.718474">
                <ele>6.870000</ele>
                <time>2014-12-14T03:20:59Z</time>
            </trkpt>
            <trkpt lon="101.367761" lat="13.718040">
                <ele>6.390000</ele>
                <time>2014-12-14T03:21:14Z</time>
            </trkpt>
            <trkpt lon="101.367806" lat="13.718029">
                <ele>6.390000</ele>
                <time>2014-12-14T03:21:15Z</time>
            </trkpt>
            <trkpt lon="101.368329" lat="13.717925">
                <ele>6.870000</ele>
                <time>2014-12-14T03:21:28Z</time>
            </trkpt>
            <trkpt lon="101.368308" lat="13.717908">
                <ele>6.390000</ele>
                <time>2014-12-14T03:21:33Z</time>
            </trkpt>
            <trkpt lon="101.367956" lat="13.717985">
                <ele>6.390000</ele>
                <time>2014-12-14T03:21:44Z</time>
            </trkpt>
            <trkpt lon="101.367828" lat="13.718007">
                <ele>6.870000</ele>
                <time>2014-12-14T03:21:47Z</time>
            </trkpt>
            <trkpt lon="101.367548" lat="13.718121">
                <ele>7.350000</ele>
                <time>2014-12-14T03:21:54Z</time>
            </trkpt>
            <trkpt lon="101.367512" lat="13.718144">
                <ele>7.350000</ele>
                <time>2014-12-14T03:21:55Z</time>
            </trkpt>
            <trkpt lon="101.366850" lat="13.718751">
                <ele>7.350000</ele>
                <time>2014-12-14T03:22:13Z</time>
            </trkpt>
            <trkpt lon="101.366135" lat="13.719380">
                <ele>8.310000</ele>
                <time>2014-12-14T03:22:30Z</time>
            </trkpt>
            <trkpt lon="101.365527" lat="13.719999">
                <ele>7.830000</ele>
                <time>2014-12-14T03:22:47Z</time>
            </trkpt>
            <trkpt lon="101.365467" lat="13.720042">
                <ele>7.830000</ele>
                <time>2014-12-14T03:22:49Z</time>
            </trkpt>
            <trkpt lon="101.365432" lat="13.720041">
                <ele>7.350000</ele>
                <time>2014-12-14T03:22:50Z</time>
            </trkpt>
            <trkpt lon="101.365400" lat="13.720026">
                <ele>7.350000</ele>
                <time>2014-12-14T03:22:51Z</time>
            </trkpt>
            <trkpt lon="101.365373" lat="13.719998">
                <ele>7.830000</ele>
                <time>2014-12-14T03:22:52Z</time>
            </trkpt>
            <trkpt lon="101.365352" lat="13.719966">
                <ele>7.830000</ele>
                <time>2014-12-14T03:22:53Z</time>
            </trkpt>
            <trkpt lon="101.365337" lat="13.719930">
                <ele>7.830000</ele>
                <time>2014-12-14T03:22:54Z</time>
            </trkpt>
            <trkpt lon="101.365324" lat="13.719895">
                <ele>7.830000</ele>
                <time>2014-12-14T03:22:55Z</time>
            </trkpt>
            <trkpt lon="101.365289" lat="13.719510">
                <ele>9.270000</ele>
                <time>2014-12-14T03:23:05Z</time>
            </trkpt>
            <trkpt lon="101.365178" lat="13.719087">
                <ele>10.230000</ele>
                <time>2014-12-14T03:23:15Z</time>
            </trkpt>
            <trkpt lon="101.365188" lat="13.719074">
                <ele>9.750000</ele>
                <time>2014-12-14T03:23:24Z</time>
            </trkpt>
            <trkpt lon="101.365207" lat="13.719080">
                <ele>9.750000</ele>
                <time>2014-12-14T03:23:26Z</time>
            </trkpt>
            <trkpt lon="101.365224" lat="13.719080">
                <ele>9.750000</ele>
                <time>2014-12-14T03:23:27Z</time>
            </trkpt>
            <trkpt lon="101.365246" lat="13.719076">
                <ele>9.750000</ele>
                <time>2014-12-14T03:23:28Z</time>
            </trkpt>
            <trkpt lon="101.365270" lat="13.719069">
                <ele>10.230000</ele>
                <time>2014-12-14T03:23:29Z</time>
            </trkpt>
            <trkpt lon="101.365297" lat="13.719060">
                <ele>9.750000</ele>
                <time>2014-12-14T03:23:30Z</time>
            </trkpt>
            <trkpt lon="101.365817" lat="13.718859">
                <ele>8.790000</ele>
                <time>2014-12-14T03:23:44Z</time>
            </trkpt>
            <trkpt lon="101.365896" lat="13.718775">
                <ele>9.270000</ele>
                <time>2014-12-14T03:23:47Z</time>
            </trkpt>
            <trkpt lon="101.366047" lat="13.718476">
                <ele>8.310000</ele>
                <time>2014-12-14T03:23:55Z</time>
            </trkpt>
            <trkpt lon="101.366067" lat="13.718438">
                <ele>8.310000</ele>
                <time>2014-12-14T03:23:56Z</time>
            </trkpt>
            <trkpt lon="101.366089" lat="13.718400">
                <ele>8.310000</ele>
                <time>2014-12-14T03:23:57Z</time>
            </trkpt>
            <trkpt lon="101.366108" lat="13.718359">
                <ele>8.310000</ele>
                <time>2014-12-14T03:23:58Z</time>
            </trkpt>
            <trkpt lon="101.366126" lat="13.718319">
                <ele>8.310000</ele>
                <time>2014-12-14T03:23:59Z</time>
            </trkpt>
            <trkpt lon="101.366146" lat="13.718279">
                <ele>8.310000</ele>
                <time>2014-12-14T03:24:00Z</time>
            </trkpt>
            <trkpt lon="101.366164" lat="13.718237">
                <ele>8.310000</ele>
                <time>2014-12-14T03:24:01Z</time>
            </trkpt>
            <trkpt lon="101.366183" lat="13.718198">
                <ele>8.310000</ele>
                <time>2014-12-14T03:24:02Z</time>
            </trkpt>
            <trkpt lon="101.366350" lat="13.717830">
                <ele>7.830000</ele>
                <time>2014-12-14T03:24:11Z</time>
            </trkpt>
            <trkpt lon="101.366370" lat="13.717791">
                <ele>7.350000</ele>
                <time>2014-12-14T03:24:12Z</time>
            </trkpt>
            <trkpt lon="101.366384" lat="13.717755">
                <ele>7.350000</ele>
                <time>2014-12-14T03:24:13Z</time>
            </trkpt>
            <trkpt lon="101.366470" lat="13.717493">
                <ele>7.350000</ele>
                <time>2014-12-14T03:24:19Z</time>
            </trkpt>
            <trkpt lon="101.366483" lat="13.717449">
                <ele>7.350000</ele>
                <time>2014-12-14T03:24:20Z</time>
            </trkpt>
            <trkpt lon="101.366524" lat="13.717317">
                <ele>7.350000</ele>
                <time>2014-12-14T03:24:23Z</time>
            </trkpt>
            <trkpt lon="101.366531" lat="13.717276">
                <ele>7.350000</ele>
                <time>2014-12-14T03:24:24Z</time>
            </trkpt>
            <trkpt lon="101.366576" lat="13.717115">
                <ele>7.350000</ele>
                <time>2014-12-14T03:24:28Z</time>
            </trkpt>
            <trkpt lon="101.366615" lat="13.716536">
                <ele>7.350000</ele>
                <time>2014-12-14T03:24:41Z</time>
            </trkpt>
            <trkpt lon="101.366610" lat="13.716057">
                <ele>7.350000</ele>
                <time>2014-12-14T03:24:53Z</time>
            </trkpt>
            <trkpt lon="101.366577" lat="13.715828">
                <ele>7.350000</ele>
                <time>2014-12-14T03:24:58Z</time>
            </trkpt>
            <trkpt lon="101.366523" lat="13.715400">
                <ele>6.390000</ele>
                <time>2014-12-14T03:25:11Z</time>
            </trkpt>
            <trkpt lon="101.366447" lat="13.714905">
                <ele>6.870000</ele>
                <time>2014-12-14T03:25:27Z</time>
            </trkpt>
            <trkpt lon="101.366355" lat="13.714386">
                <ele>6.390000</ele>
                <time>2014-12-14T03:25:43Z</time>
            </trkpt>
            <trkpt lon="101.366311" lat="13.714168">
                <ele>5.910000</ele>
                <time>2014-12-14T03:25:54Z</time>
            </trkpt>
            <trkpt lon="101.366334" lat="13.714156">
                <ele>6.390000</ele>
                <time>2014-12-14T03:26:00Z</time>
            </trkpt>
            <trkpt lon="101.366378" lat="13.714139">
                <ele>6.390000</ele>
                <time>2014-12-14T03:26:04Z</time>
            </trkpt>
            <trkpt lon="101.366335" lat="13.713947">
                <ele>6.390000</ele>
                <time>2014-12-14T03:26:14Z</time>
            </trkpt>
            <trkpt lon="101.366294" lat="13.713711">
                <ele>6.390000</ele>
                <time>2014-12-14T03:26:20Z</time>
            </trkpt>
            <trkpt lon="101.366284" lat="13.713669">
                <ele>6.390000</ele>
                <time>2014-12-14T03:26:21Z</time>
            </trkpt>
            <trkpt lon="101.366274" lat="13.713627">
                <ele>6.390000</ele>
                <time>2014-12-14T03:26:22Z</time>
            </trkpt>
            <trkpt lon="101.366243" lat="13.713499">
                <ele>6.870000</ele>
                <time>2014-12-14T03:26:25Z</time>
            </trkpt>
            <trkpt lon="101.366053" lat="13.713002">
                <ele>6.870000</ele>
                <time>2014-12-14T03:26:38Z</time>
            </trkpt>
            <trkpt lon="101.365860" lat="13.712526">
                <ele>6.870000</ele>
                <time>2014-12-14T03:26:51Z</time>
            </trkpt>
            <trkpt lon="101.365736" lat="13.712211">
                <ele>6.870000</ele>
                <time>2014-12-14T03:26:59Z</time>
            </trkpt>
            <trkpt lon="101.365588" lat="13.711757">
                <ele>6.870000</ele>
                <time>2014-12-14T03:27:12Z</time>
            </trkpt>
            <trkpt lon="101.365395" lat="13.711491">
                <ele>7.350000</ele>
                <time>2014-12-14T03:27:21Z</time>
            </trkpt>
            <trkpt lon="101.365358" lat="13.711463">
                <ele>7.350000</ele>
                <time>2014-12-14T03:27:22Z</time>
            </trkpt>
            <trkpt lon="101.365317" lat="13.711442">
                <ele>7.350000</ele>
                <time>2014-12-14T03:27:23Z</time>
            </trkpt>
            <trkpt lon="101.365273" lat="13.711432">
                <ele>7.350000</ele>
                <time>2014-12-14T03:27:24Z</time>
            </trkpt>
            <trkpt lon="101.365227" lat="13.711423">
                <ele>7.350000</ele>
                <time>2014-12-14T03:27:25Z</time>
            </trkpt>
            <trkpt lon="101.365180" lat="13.711420">
                <ele>7.350000</ele>
                <time>2014-12-14T03:27:26Z</time>
            </trkpt>
            <trkpt lon="101.365133" lat="13.711422">
                <ele>7.350000</ele>
                <time>2014-12-14T03:27:27Z</time>
            </trkpt>
            <trkpt lon="101.365085" lat="13.711429">
                <ele>7.350000</ele>
                <time>2014-12-14T03:27:28Z</time>
            </trkpt>
            <trkpt lon="101.365037" lat="13.711439">
                <ele>7.350000</ele>
                <time>2014-12-14T03:27:29Z</time>
            </trkpt>
            <trkpt lon="101.364428" lat="13.711586">
                <ele>7.830000</ele>
                <time>2014-12-14T03:27:42Z</time>
            </trkpt>
            <trkpt lon="101.363610" lat="13.711806">
                <ele>7.350000</ele>
                <time>2014-12-14T03:27:58Z</time>
            </trkpt>
            <trkpt lon="101.362921" lat="13.711979">
                <ele>7.350000</ele>
                <time>2014-12-14T03:28:12Z</time>
            </trkpt>
            <trkpt lon="101.362503" lat="13.712089">
                <ele>7.830000</ele>
                <time>2014-12-14T03:28:21Z</time>
            </trkpt>
            <trkpt lon="101.362293" lat="13.712154">
                <ele>7.350000</ele>
                <time>2014-12-14T03:28:27Z</time>
            </trkpt>
            <trkpt lon="101.362283" lat="13.712181">
                <ele>7.830000</ele>
                <time>2014-12-14T03:28:28Z</time>
            </trkpt>
            <trkpt lon="101.362286" lat="13.712209">
                <ele>7.350000</ele>
                <time>2014-12-14T03:28:29Z</time>
            </trkpt>
            <trkpt lon="101.362509" lat="13.712765">
                <ele>7.830000</ele>
                <time>2014-12-14T03:28:43Z</time>
            </trkpt>
            <trkpt lon="101.362780" lat="13.713500">
                <ele>8.310000</ele>
                <time>2014-12-14T03:29:00Z</time>
            </trkpt>
            <trkpt lon="101.362767" lat="13.713524">
                <ele>8.310000</ele>
                <time>2014-12-14T03:29:01Z</time>
            </trkpt>
            <trkpt lon="101.362652" lat="13.713580">
                <ele>8.310000</ele>
                <time>2014-12-14T03:29:05Z</time>
            </trkpt>
            <trkpt lon="101.361974" lat="13.713951">
                <ele>7.830000</ele>
                <time>2014-12-14T03:29:21Z</time>
            </trkpt>
            <trkpt lon="101.361026" lat="13.714407">
                <ele>6.870000</ele>
                <time>2014-12-14T03:29:41Z</time>
            </trkpt>
            <trkpt lon="101.360301" lat="13.714752">
                <ele>6.390000</ele>
                <time>2014-12-14T03:29:57Z</time>
            </trkpt>
            <trkpt lon="101.360257" lat="13.714771">
                <ele>6.390000</ele>
                <time>2014-12-14T03:29:58Z</time>
            </trkpt>
            <trkpt lon="101.359733" lat="13.715109">
                <ele>6.390000</ele>
                <time>2014-12-14T03:30:12Z</time>
            </trkpt>
            <trkpt lon="101.359143" lat="13.715521">
                <ele>5.910000</ele>
                <time>2014-12-14T03:30:27Z</time>
            </trkpt>
            <trkpt lon="101.358589" lat="13.715907">
                <ele>5.910000</ele>
                <time>2014-12-14T03:30:41Z</time>
            </trkpt>
            <trkpt lon="101.358506" lat="13.715956">
                <ele>5.910000</ele>
                <time>2014-12-14T03:30:43Z</time>
            </trkpt>
            <trkpt lon="101.357740" lat="13.716510">
                <ele>5.910000</ele>
                <time>2014-12-14T03:31:02Z</time>
            </trkpt>
            <trkpt lon="101.357149" lat="13.716840">
                <ele>5.910000</ele>
                <time>2014-12-14T03:31:17Z</time>
            </trkpt>
            <trkpt lon="101.357122" lat="13.716869">
                <ele>6.390000</ele>
                <time>2014-12-14T03:31:21Z</time>
            </trkpt>
            <trkpt lon="101.357006" lat="13.716876">
                <ele>7.350000</ele>
                <time>2014-12-14T03:31:29Z</time>
            </trkpt>
            <trkpt lon="101.356522" lat="13.717062">
                <ele>6.390000</ele>
                <time>2014-12-14T03:31:43Z</time>
            </trkpt>
            <trkpt lon="101.356071" lat="13.717243">
                <ele>6.390000</ele>
                <time>2014-12-14T03:31:55Z</time>
            </trkpt>
            <trkpt lon="101.355209" lat="13.717581">
                <ele>5.910000</ele>
                <time>2014-12-14T03:32:15Z</time>
            </trkpt>
            <trkpt lon="101.354842" lat="13.717731">
                <ele>6.390000</ele>
                <time>2014-12-14T03:32:25Z</time>
            </trkpt>
            <trkpt lon="101.354595" lat="13.717802">
                <ele>5.910000</ele>
                <time>2014-12-14T03:32:31Z</time>
            </trkpt>
            <trkpt lon="101.354371" lat="13.717897">
                <ele>5.910000</ele>
                <time>2014-12-14T03:32:37Z</time>
            </trkpt>
            <trkpt lon="101.354137" lat="13.718009">
                <ele>5.910000</ele>
                <time>2014-12-14T03:32:43Z</time>
            </trkpt>
            <trkpt lon="101.353552" lat="13.718172">
                <ele>5.910000</ele>
                <time>2014-12-14T03:32:59Z</time>
            </trkpt>
            <trkpt lon="101.353154" lat="13.718174">
                <ele>5.910000</ele>
                <time>2014-12-14T03:33:12Z</time>
            </trkpt>
            <trkpt lon="101.352554" lat="13.718147">
                <ele>5.420000</ele>
                <time>2014-12-14T03:33:26Z</time>
            </trkpt>
            <trkpt lon="101.351850" lat="13.718134">
                <ele>4.940000</ele>
                <time>2014-12-14T03:33:42Z</time>
            </trkpt>
            <trkpt lon="101.351750" lat="13.718158">
                <ele>4.460000</ele>
                <time>2014-12-14T03:33:46Z</time>
            </trkpt>
            <trkpt lon="101.351292" lat="13.718133">
                <ele>4.940000</ele>
                <time>2014-12-14T03:34:00Z</time>
            </trkpt>
            <trkpt lon="101.350561" lat="13.718123">
                <ele>5.420000</ele>
                <time>2014-12-14T03:34:17Z</time>
            </trkpt>
            <trkpt lon="101.349970" lat="13.718223">
                <ele>5.420000</ele>
                <time>2014-12-14T03:34:31Z</time>
            </trkpt>
            <trkpt lon="101.349560" lat="13.718544">
                <ele>5.420000</ele>
                <time>2014-12-14T03:34:45Z</time>
            </trkpt>
            <trkpt lon="101.349039" lat="13.719041">
                <ele>5.910000</ele>
                <time>2014-12-14T03:35:03Z</time>
            </trkpt>
            <trkpt lon="101.348886" lat="13.719190">
                <ele>6.870000</ele>
                <time>2014-12-14T03:35:12Z</time>
            </trkpt>
            <trkpt lon="101.348500" lat="13.719545">
                <ele>6.390000</ele>
                <time>2014-12-14T03:35:26Z</time>
            </trkpt>
            <trkpt lon="101.348126" lat="13.719906">
                <ele>5.910000</ele>
                <time>2014-12-14T03:35:41Z</time>
            </trkpt>
            <trkpt lon="101.348013" lat="13.720013">
                <ele>5.910000</ele>
                <time>2014-12-14T03:35:45Z</time>
            </trkpt>
            <trkpt lon="101.347523" lat="13.720491">
                <ele>6.870000</ele>
                <time>2014-12-14T03:36:02Z</time>
            </trkpt>
            <trkpt lon="101.346865" lat="13.721122">
                <ele>6.390000</ele>
                <time>2014-12-14T03:36:23Z</time>
            </trkpt>
            <trkpt lon="101.346423" lat="13.721517">
                <ele>6.390000</ele>
                <time>2014-12-14T03:36:38Z</time>
            </trkpt>
            <trkpt lon="101.346082" lat="13.721845">
                <ele>5.910000</ele>
                <time>2014-12-14T03:36:52Z</time>
            </trkpt>
            <trkpt lon="101.345481" lat="13.722427">
                <ele>6.390000</ele>
                <time>2014-12-14T03:37:11Z</time>
            </trkpt>
            <trkpt lon="101.345185" lat="13.722705">
                <ele>6.390000</ele>
                <time>2014-12-14T03:37:23Z</time>
            </trkpt>
            <trkpt lon="101.344915" lat="13.722595">
                <ele>6.390000</ele>
                <time>2014-12-14T03:37:32Z</time>
            </trkpt>
            <trkpt lon="101.344840" lat="13.722540">
                <ele>6.390000</ele>
                <time>2014-12-14T03:37:34Z</time>
            </trkpt>
            <trkpt lon="101.344813" lat="13.722502">
                <ele>6.390000</ele>
                <time>2014-12-14T03:37:35Z</time>
            </trkpt>
            <trkpt lon="101.344799" lat="13.722461">
                <ele>5.910000</ele>
                <time>2014-12-14T03:37:36Z</time>
            </trkpt>
            <trkpt lon="101.344796" lat="13.722418">
                <ele>5.910000</ele>
                <time>2014-12-14T03:37:37Z</time>
            </trkpt>
            <trkpt lon="101.344800" lat="13.722375">
                <ele>5.910000</ele>
                <time>2014-12-14T03:37:38Z</time>
            </trkpt>
            <trkpt lon="101.344809" lat="13.722330">
                <ele>5.910000</ele>
                <time>2014-12-14T03:37:39Z</time>
            </trkpt>
            <trkpt lon="101.344839" lat="13.722145">
                <ele>5.910000</ele>
                <time>2014-12-14T03:37:43Z</time>
            </trkpt>
            <trkpt lon="101.344874" lat="13.721958">
                <ele>6.390000</ele>
                <time>2014-12-14T03:37:47Z</time>
            </trkpt>
            <trkpt lon="101.344832" lat="13.721650">
                <ele>6.390000</ele>
                <time>2014-12-14T03:37:53Z</time>
            </trkpt>
            <trkpt lon="101.344811" lat="13.721602">
                <ele>6.390000</ele>
                <time>2014-12-14T03:37:54Z</time>
            </trkpt>
            <trkpt lon="101.344785" lat="13.721555">
                <ele>6.390000</ele>
                <time>2014-12-14T03:37:55Z</time>
            </trkpt>
            <trkpt lon="101.344700" lat="13.721419">
                <ele>6.870000</ele>
                <time>2014-12-14T03:37:58Z</time>
            </trkpt>
            <trkpt lon="101.344680" lat="13.721374">
                <ele>6.870000</ele>
                <time>2014-12-14T03:37:59Z</time>
            </trkpt>
            <trkpt lon="101.344669" lat="13.721329">
                <ele>6.870000</ele>
                <time>2014-12-14T03:38:00Z</time>
            </trkpt>
            <trkpt lon="101.344659" lat="13.720790">
                <ele>6.870000</ele>
                <time>2014-12-14T03:38:13Z</time>
            </trkpt>
            <trkpt lon="101.344668" lat="13.720348">
                <ele>6.390000</ele>
                <time>2014-12-14T03:38:26Z</time>
            </trkpt>
            <trkpt lon="101.344670" lat="13.720315">
                <ele>6.390000</ele>
                <time>2014-12-14T03:38:27Z</time>
            </trkpt>
            <trkpt lon="101.344779" lat="13.720235">
                <ele>5.910000</ele>
                <time>2014-12-14T03:38:32Z</time>
            </trkpt>
            <trkpt lon="101.345216" lat="13.720130">
                <ele>6.390000</ele>
                <time>2014-12-14T03:38:46Z</time>
            </trkpt>
            <trkpt lon="101.345661" lat="13.720063">
                <ele>6.870000</ele>
                <time>2014-12-14T03:38:59Z</time>
            </trkpt>
            <trkpt lon="101.346127" lat="13.719929">
                <ele>6.390000</ele>
                <time>2014-12-14T03:39:12Z</time>
            </trkpt>
            <trkpt lon="101.346293" lat="13.719952">
                <ele>5.420000</ele>
                <time>2014-12-14T03:39:21Z</time>
            </trkpt>
            <trkpt lon="101.346611" lat="13.719802">
                <ele>5.910000</ele>
                <time>2014-12-14T03:39:34Z</time>
            </trkpt>
            <trkpt lon="101.346984" lat="13.719676">
                <ele>5.910000</ele>
                <time>2014-12-14T03:39:46Z</time>
            </trkpt>
            <trkpt lon="101.347278" lat="13.719565">
                <ele>6.390000</ele>
                <time>2014-12-14T03:39:57Z</time>
            </trkpt>
            <trkpt lon="101.347582" lat="13.719406">
                <ele>4.940000</ele>
                <time>2014-12-14T03:40:10Z</time>
            </trkpt>
            <trkpt lon="101.348002" lat="13.719290">
                <ele>6.390000</ele>
                <time>2014-12-14T03:40:26Z</time>
            </trkpt>
            <trkpt lon="101.348192" lat="13.719135">
                <ele>5.420000</ele>
                <time>2014-12-14T03:40:38Z</time>
            </trkpt>
            <trkpt lon="101.348357" lat="13.718945">
                <ele>5.420000</ele>
                <time>2014-12-14T03:40:52Z</time>
            </trkpt>
            <trkpt lon="101.348472" lat="13.718759">
                <ele>5.420000</ele>
                <time>2014-12-14T03:41:02Z</time>
            </trkpt>
            <trkpt lon="101.348470" lat="13.718746">
                <ele>5.910000</ele>
                <time>2014-12-14T03:41:18Z</time>
            </trkpt>
            <trkpt lon="101.348448" lat="13.718731">
                <ele>6.390000</ele>
                <time>2014-12-14T03:41:26Z</time>
            </trkpt>
            <trkpt lon="101.348457" lat="13.718629">
                <ele>5.910000</ele>
                <time>2014-12-14T03:41:33Z</time>
            </trkpt>
            <trkpt lon="101.348716" lat="13.718272">
                <ele>4.460000</ele>
                <time>2014-12-14T03:41:47Z</time>
            </trkpt>
            <trkpt lon="101.348940" lat="13.718003">
                <ele>3.980000</ele>
                <time>2014-12-14T03:41:59Z</time>
            </trkpt>
            <trkpt lon="101.348986" lat="13.717923">
                <ele>3.980000</ele>
                <time>2014-12-14T03:42:11Z</time>
            </trkpt>
            <trkpt lon="101.349022" lat="13.717856">
                <ele>5.420000</ele>
                <time>2014-12-14T03:42:23Z</time>
            </trkpt>
            <trkpt lon="101.349070" lat="13.717724">
                <ele>8.310000</ele>
                <time>2014-12-14T03:42:40Z</time>
            </trkpt>
            <trkpt lon="101.349142" lat="13.717588">
                <ele>8.310000</ele>
                <time>2014-12-14T03:42:54Z</time>
            </trkpt>
            <trkpt lon="101.349180" lat="13.717528">
                <ele>8.790000</ele>
                <time>2014-12-14T03:43:03Z</time>
            </trkpt>
            <trkpt lon="101.349204" lat="13.717170">
                <ele>9.270000</ele>
                <time>2014-12-14T03:43:17Z</time>
            </trkpt>
            <trkpt lon="101.349210" lat="13.716966">
                <ele>9.270000</ele>
                <time>2014-12-14T03:43:25Z</time>
            </trkpt>
            <trkpt lon="101.348910" lat="13.716817">
                <ele>9.270000</ele>
                <time>2014-12-14T03:43:37Z</time>
            </trkpt>
            <trkpt lon="101.348451" lat="13.716647">
                <ele>9.750000</ele>
                <time>2014-12-14T03:43:50Z</time>
            </trkpt>
            <trkpt lon="101.348036" lat="13.716613">
                <ele>9.750000</ele>
                <time>2014-12-14T03:43:59Z</time>
            </trkpt>
            <trkpt lon="101.347306" lat="13.716551">
                <ele>8.790000</ele>
                <time>2014-12-14T03:44:14Z</time>
            </trkpt>
            <trkpt lon="101.347212" lat="13.716544">
                <ele>8.790000</ele>
                <time>2014-12-14T03:44:16Z</time>
            </trkpt>
            <trkpt lon="101.346491" lat="13.716509">
                <ele>7.350000</ele>
                <time>2014-12-14T03:44:33Z</time>
            </trkpt>
            <trkpt lon="101.346443" lat="13.716319">
                <ele>5.910000</ele>
                <time>2014-12-14T03:44:41Z</time>
            </trkpt>
            <trkpt lon="101.346594" lat="13.715705">
                <ele>5.420000</ele>
                <time>2014-12-14T03:44:58Z</time>
            </trkpt>
            <trkpt lon="101.346633" lat="13.715227">
                <ele>5.420000</ele>
                <time>2014-12-14T03:45:11Z</time>
            </trkpt>
            <trkpt lon="101.346636" lat="13.715149">
                <ele>5.420000</ele>
                <time>2014-12-14T03:45:13Z</time>
            </trkpt>
            <trkpt lon="101.346580" lat="13.714944">
                <ele>6.390000</ele>
                <time>2014-12-14T03:45:19Z</time>
            </trkpt>
            <trkpt lon="101.346544" lat="13.714317">
                <ele>7.350000</ele>
                <time>2014-12-14T03:45:35Z</time>
            </trkpt>
            <trkpt lon="101.346541" lat="13.714194">
                <ele>6.870000</ele>
                <time>2014-12-14T03:45:38Z</time>
            </trkpt>
            <trkpt lon="101.346634" lat="13.713822">
                <ele>7.350000</ele>
                <time>2014-12-14T03:45:47Z</time>
            </trkpt>
            <trkpt lon="101.346697" lat="13.713552">
                <ele>7.350000</ele>
                <time>2014-12-14T03:45:54Z</time>
            </trkpt>
            <trkpt lon="101.347072" lat="13.713443">
                <ele>8.310000</ele>
                <time>2014-12-14T03:46:04Z</time>
            </trkpt>
            <trkpt lon="101.347108" lat="13.713290">
                <ele>8.310000</ele>
                <time>2014-12-14T03:46:08Z</time>
            </trkpt>
            <trkpt lon="101.347132" lat="13.712434">
                <ele>7.350000</ele>
                <time>2014-12-14T03:46:26Z</time>
            </trkpt>
            <trkpt lon="101.347145" lat="13.711763">
                <ele>7.350000</ele>
                <time>2014-12-14T03:46:41Z</time>
            </trkpt>
            <trkpt lon="101.347187" lat="13.711393">
                <ele>6.390000</ele>
                <time>2014-12-14T03:46:49Z</time>
            </trkpt>
            <trkpt lon="101.347202" lat="13.711355">
                <ele>6.390000</ele>
                <time>2014-12-14T03:46:50Z</time>
            </trkpt>
            <trkpt lon="101.347226" lat="13.711322">
                <ele>6.390000</ele>
                <time>2014-12-14T03:46:51Z</time>
            </trkpt>
            <trkpt lon="101.347258" lat="13.711301">
                <ele>6.870000</ele>
                <time>2014-12-14T03:46:52Z</time>
            </trkpt>
            <trkpt lon="101.347288" lat="13.711294">
                <ele>6.870000</ele>
                <time>2014-12-14T03:46:53Z</time>
            </trkpt>
            <trkpt lon="101.347320" lat="13.711296">
                <ele>6.870000</ele>
                <time>2014-12-14T03:46:54Z</time>
            </trkpt>
            <trkpt lon="101.347351" lat="13.711310">
                <ele>6.870000</ele>
                <time>2014-12-14T03:46:55Z</time>
            </trkpt>
            <trkpt lon="101.347381" lat="13.711330">
                <ele>6.870000</ele>
                <time>2014-12-14T03:46:56Z</time>
            </trkpt>
            <trkpt lon="101.347764" lat="13.711529">
                <ele>7.830000</ele>
                <time>2014-12-14T03:47:06Z</time>
            </trkpt>
            <trkpt lon="101.348528" lat="13.711629">
                <ele>9.270000</ele>
                <time>2014-12-14T03:47:22Z</time>
            </trkpt>
            <trkpt lon="101.348726" lat="13.711659">
                <ele>9.270000</ele>
                <time>2014-12-14T03:47:26Z</time>
            </trkpt>
            <trkpt lon="101.348771" lat="13.711681">
                <ele>9.750000</ele>
                <time>2014-12-14T03:47:27Z</time>
            </trkpt>
            <trkpt lon="101.348812" lat="13.711709">
                <ele>9.750000</ele>
                <time>2014-12-14T03:47:28Z</time>
            </trkpt>
            <trkpt lon="101.348852" lat="13.711740">
                <ele>9.750000</ele>
                <time>2014-12-14T03:47:29Z</time>
            </trkpt>
            <trkpt lon="101.348891" lat="13.711773">
                <ele>9.750000</ele>
                <time>2014-12-14T03:47:30Z</time>
            </trkpt>
            <trkpt lon="101.348933" lat="13.711809">
                <ele>10.230000</ele>
                <time>2014-12-14T03:47:31Z</time>
            </trkpt>
            <trkpt lon="101.348970" lat="13.711845">
                <ele>10.230000</ele>
                <time>2014-12-14T03:47:32Z</time>
            </trkpt>
            <trkpt lon="101.349609" lat="13.712426">
                <ele>11.190000</ele>
                <time>2014-12-14T03:47:50Z</time>
            </trkpt>
            <trkpt lon="101.349950" lat="13.712720">
                <ele>11.190000</ele>
                <time>2014-12-14T03:48:00Z</time>
            </trkpt>
            <trkpt lon="101.349993" lat="13.712739">
                <ele>11.190000</ele>
                <time>2014-12-14T03:48:01Z</time>
            </trkpt>
            <trkpt lon="101.350037" lat="13.712754">
                <ele>11.190000</ele>
                <time>2014-12-14T03:48:02Z</time>
            </trkpt>
            <trkpt lon="101.350279" lat="13.712761">
                <ele>10.710000</ele>
                <time>2014-12-14T03:48:09Z</time>
            </trkpt>
            <trkpt lon="101.350307" lat="13.712775">
                <ele>13.600000</ele>
                <time>2014-12-14T03:57:27Z</time>
            </trkpt>
            <trkpt lon="101.350327" lat="13.712802">
                <ele>14.080000</ele>
                <time>2014-12-14T03:57:29Z</time>
            </trkpt>
            <trkpt lon="101.350347" lat="13.712809">
                <ele>14.080000</ele>
                <time>2014-12-14T03:57:30Z</time>
            </trkpt>
            <trkpt lon="101.350372" lat="13.712815">
                <ele>14.080000</ele>
                <time>2014-12-14T03:57:31Z</time>
            </trkpt>
            <trkpt lon="101.350398" lat="13.712818">
                <ele>14.080000</ele>
                <time>2014-12-14T03:57:32Z</time>
            </trkpt>
            <trkpt lon="101.350427" lat="13.712820">
                <ele>14.080000</ele>
                <time>2014-12-14T03:57:33Z</time>
            </trkpt>
            <trkpt lon="101.350886" lat="13.712688">
                <ele>14.080000</ele>
                <time>2014-12-14T03:57:47Z</time>
            </trkpt>
            <trkpt lon="101.351423" lat="13.712547">
                <ele>15.520000</ele>
                <time>2014-12-14T03:58:03Z</time>
            </trkpt>
            <trkpt lon="101.352154" lat="13.712789">
                <ele>16.000000</ele>
                <time>2014-12-14T03:58:20Z</time>
            </trkpt>
            <trkpt lon="101.352440" lat="13.712847">
                <ele>16.000000</ele>
                <time>2014-12-14T03:58:26Z</time>
            </trkpt>
            <trkpt lon="101.352486" lat="13.712832">
                <ele>16.000000</ele>
                <time>2014-12-14T03:58:27Z</time>
            </trkpt>
            <trkpt lon="101.352525" lat="13.712801">
                <ele>16.000000</ele>
                <time>2014-12-14T03:58:28Z</time>
            </trkpt>
            <trkpt lon="101.352555" lat="13.712761">
                <ele>16.000000</ele>
                <time>2014-12-14T03:58:29Z</time>
            </trkpt>
            <trkpt lon="101.352581" lat="13.712718">
                <ele>16.000000</ele>
                <time>2014-12-14T03:58:30Z</time>
            </trkpt>
            <trkpt lon="101.352606" lat="13.712674">
                <ele>16.000000</ele>
                <time>2014-12-14T03:58:31Z</time>
            </trkpt>
            <trkpt lon="101.352633" lat="13.712631">
                <ele>16.000000</ele>
                <time>2014-12-14T03:58:32Z</time>
            </trkpt>
            <trkpt lon="101.352663" lat="13.712589">
                <ele>16.000000</ele>
                <time>2014-12-14T03:58:33Z</time>
            </trkpt>
            <trkpt lon="101.352697" lat="13.712550">
                <ele>16.000000</ele>
                <time>2014-12-14T03:58:34Z</time>
            </trkpt>
            <trkpt lon="101.352735" lat="13.712518">
                <ele>16.480000</ele>
                <time>2014-12-14T03:58:35Z</time>
            </trkpt>
            <trkpt lon="101.352780" lat="13.712494">
                <ele>16.480000</ele>
                <time>2014-12-14T03:58:36Z</time>
            </trkpt>
            <trkpt lon="101.352826" lat="13.712477">
                <ele>16.480000</ele>
                <time>2014-12-14T03:58:37Z</time>
            </trkpt>
            <trkpt lon="101.352873" lat="13.712463">
                <ele>16.480000</ele>
                <time>2014-12-14T03:58:38Z</time>
            </trkpt>
            <trkpt lon="101.352918" lat="13.712455">
                <ele>16.960000</ele>
                <time>2014-12-14T03:58:39Z</time>
            </trkpt>
            <trkpt lon="101.353353" lat="13.712437">
                <ele>16.960000</ele>
                <time>2014-12-14T03:58:50Z</time>
            </trkpt>
            <trkpt lon="101.353376" lat="13.712410">
                <ele>16.960000</ele>
                <time>2014-12-14T03:58:51Z</time>
            </trkpt>
            <trkpt lon="101.353391" lat="13.712373">
                <ele>16.960000</ele>
                <time>2014-12-14T03:58:52Z</time>
            </trkpt>
            <trkpt lon="101.353397" lat="13.712339">
                <ele>16.960000</ele>
                <time>2014-12-14T03:58:53Z</time>
            </trkpt>
            <trkpt lon="101.353398" lat="13.712298">
                <ele>16.480000</ele>
                <time>2014-12-14T03:58:54Z</time>
            </trkpt>
            <trkpt lon="101.353397" lat="13.712256">
                <ele>16.480000</ele>
                <time>2014-12-14T03:58:55Z</time>
            </trkpt>
            <trkpt lon="101.353394" lat="13.712167">
                <ele>16.000000</ele>
                <time>2014-12-14T03:58:57Z</time>
            </trkpt>
            <trkpt lon="101.353379" lat="13.711483">
                <ele>14.560000</ele>
                <time>2014-12-14T03:59:11Z</time>
            </trkpt>
            <trkpt lon="101.353375" lat="13.711187">
                <ele>15.520000</ele>
                <time>2014-12-14T03:59:17Z</time>
            </trkpt>
            <trkpt lon="101.353339" lat="13.710422">
                <ele>15.520000</ele>
                <time>2014-12-14T03:59:32Z</time>
            </trkpt>
            <trkpt lon="101.353265" lat="13.709519">
                <ele>15.040000</ele>
                <time>2014-12-14T03:59:49Z</time>
            </trkpt>
            <trkpt lon="101.353159" lat="13.708333">
                <ele>14.560000</ele>
                <time>2014-12-14T04:00:10Z</time>
            </trkpt>
            <trkpt lon="101.353049" lat="13.707211">
                <ele>15.040000</ele>
                <time>2014-12-14T04:00:30Z</time>
            </trkpt>
            <trkpt lon="101.352951" lat="13.706188">
                <ele>15.040000</ele>
                <time>2014-12-14T04:00:48Z</time>
            </trkpt>
            <trkpt lon="101.352903" lat="13.705506">
                <ele>15.520000</ele>
                <time>2014-12-14T04:01:01Z</time>
            </trkpt>
            <trkpt lon="101.352904" lat="13.705459">
                <ele>15.520000</ele>
                <time>2014-12-14T04:01:02Z</time>
            </trkpt>
            <trkpt lon="101.352942" lat="13.705060">
                <ele>15.520000</ele>
                <time>2014-12-14T04:01:11Z</time>
            </trkpt>
            <trkpt lon="101.352934" lat="13.705017">
                <ele>15.520000</ele>
                <time>2014-12-14T04:01:12Z</time>
            </trkpt>
            <trkpt lon="101.352915" lat="13.704982">
                <ele>15.520000</ele>
                <time>2014-12-14T04:01:13Z</time>
            </trkpt>
            <trkpt lon="101.352887" lat="13.704948">
                <ele>15.520000</ele>
                <time>2014-12-14T04:01:14Z</time>
            </trkpt>
            <trkpt lon="101.352852" lat="13.704923">
                <ele>15.040000</ele>
                <time>2014-12-14T04:01:15Z</time>
            </trkpt>
            <trkpt lon="101.352824" lat="13.704908">
                <ele>15.040000</ele>
                <time>2014-12-14T04:01:16Z</time>
            </trkpt>
            <trkpt lon="101.352786" lat="13.704896">
                <ele>15.040000</ele>
                <time>2014-12-14T04:01:17Z</time>
            </trkpt>
            <trkpt lon="101.352745" lat="13.704886">
                <ele>15.040000</ele>
                <time>2014-12-14T04:01:18Z</time>
            </trkpt>
            <trkpt lon="101.352703" lat="13.704874">
                <ele>15.520000</ele>
                <time>2014-12-14T04:01:19Z</time>
            </trkpt>
            <trkpt lon="101.352661" lat="13.704855">
                <ele>15.520000</ele>
                <time>2014-12-14T04:01:20Z</time>
            </trkpt>
            <trkpt lon="101.352619" lat="13.704829">
                <ele>15.520000</ele>
                <time>2014-12-14T04:01:21Z</time>
            </trkpt>
            <trkpt lon="101.352582" lat="13.704801">
                <ele>15.520000</ele>
                <time>2014-12-14T04:01:22Z</time>
            </trkpt>
            <trkpt lon="101.352545" lat="13.704771">
                <ele>15.520000</ele>
                <time>2014-12-14T04:01:23Z</time>
            </trkpt>
            <trkpt lon="101.352426" lat="13.704676">
                <ele>15.040000</ele>
                <time>2014-12-14T04:01:26Z</time>
            </trkpt>
            <trkpt lon="101.351803" lat="13.703983">
                <ele>14.560000</ele>
                <time>2014-12-14T04:01:44Z</time>
            </trkpt>
            <trkpt lon="101.351672" lat="13.703817">
                <ele>14.560000</ele>
                <time>2014-12-14T04:01:48Z</time>
            </trkpt>
            <trkpt lon="101.351640" lat="13.703779">
                <ele>14.560000</ele>
                <time>2014-12-14T04:01:49Z</time>
            </trkpt>
            <trkpt lon="101.351510" lat="13.703610">
                <ele>14.560000</ele>
                <time>2014-12-14T04:01:54Z</time>
            </trkpt>
            <trkpt lon="101.351527" lat="13.703581">
                <ele>14.560000</ele>
                <time>2014-12-14T04:01:55Z</time>
            </trkpt>
            <trkpt lon="101.351759" lat="13.703280">
                <ele>9.750000</ele>
                <time>2014-12-14T04:02:04Z</time>
            </trkpt>
            <trkpt lon="101.351779" lat="13.703259">
                <ele>9.270000</ele>
                <time>2014-12-14T04:02:06Z</time>
            </trkpt>
            <trkpt lon="101.351787" lat="13.703249">
                <ele>8.310000</ele>
                <time>2014-12-14T04:02:21Z</time>
            </trkpt>
            <trkpt lon="101.351768" lat="13.703260">
                <ele>9.750000</ele>
                <time>2014-12-14T04:02:45Z</time>
            </trkpt>
            <trkpt lon="101.351703" lat="13.703323">
                <ele>9.750000</ele>
                <time>2014-12-14T04:02:50Z</time>
            </trkpt>
            <trkpt lon="101.351687" lat="13.703344">
                <ele>9.750000</ele>
                <time>2014-12-14T04:02:51Z</time>
            </trkpt>
            <trkpt lon="101.351669" lat="13.703370">
                <ele>9.750000</ele>
                <time>2014-12-14T04:02:52Z</time>
            </trkpt>
            <trkpt lon="101.351479" lat="13.703577">
                <ele>12.150000</ele>
                <time>2014-12-14T04:03:01Z</time>
            </trkpt>
            <trkpt lon="101.351455" lat="13.703574">
                <ele>12.630000</ele>
                <time>2014-12-14T04:03:02Z</time>
            </trkpt>
            <trkpt lon="101.351432" lat="13.703563">
                <ele>13.120000</ele>
                <time>2014-12-14T04:03:03Z</time>
            </trkpt>
            <trkpt lon="101.351413" lat="13.703549">
                <ele>13.600000</ele>
                <time>2014-12-14T04:03:04Z</time>
            </trkpt>
            <trkpt lon="101.351390" lat="13.703530">
                <ele>13.600000</ele>
                <time>2014-12-14T04:03:05Z</time>
            </trkpt>
            <trkpt lon="101.351369" lat="13.703508">
                <ele>13.600000</ele>
                <time>2014-12-14T04:03:06Z</time>
            </trkpt>
            <trkpt lon="101.350981" lat="13.703083">
                <ele>13.600000</ele>
                <time>2014-12-14T04:03:20Z</time>
            </trkpt>
            <trkpt lon="101.350369" lat="13.702378">
                <ele>14.080000</ele>
                <time>2014-12-14T04:03:38Z</time>
            </trkpt>
            <trkpt lon="101.349578" lat="13.701498">
                <ele>13.600000</ele>
                <time>2014-12-14T04:03:58Z</time>
            </trkpt>
            <trkpt lon="101.348888" lat="13.700730">
                <ele>13.600000</ele>
                <time>2014-12-14T04:04:16Z</time>
            </trkpt>
            <trkpt lon="101.348074" lat="13.699835">
                <ele>13.120000</ele>
                <time>2014-12-14T04:04:36Z</time>
            </trkpt>
            <trkpt lon="101.347210" lat="13.698859">
                <ele>13.120000</ele>
                <time>2014-12-14T04:04:57Z</time>
            </trkpt>
            <trkpt lon="101.346618" lat="13.698206">
                <ele>12.630000</ele>
                <time>2014-12-14T04:05:13Z</time>
            </trkpt>
            <trkpt lon="101.346557" lat="13.698097">
                <ele>12.630000</ele>
                <time>2014-12-14T04:05:16Z</time>
            </trkpt>
            <trkpt lon="101.346564" lat="13.698068">
                <ele>13.120000</ele>
                <time>2014-12-14T04:05:17Z</time>
            </trkpt>
            <trkpt lon="101.346583" lat="13.698044">
                <ele>13.120000</ele>
                <time>2014-12-14T04:05:18Z</time>
            </trkpt>
            <trkpt lon="101.346606" lat="13.698018">
                <ele>13.120000</ele>
                <time>2014-12-14T04:05:19Z</time>
            </trkpt>
            <trkpt lon="101.346629" lat="13.697984">
                <ele>12.630000</ele>
                <time>2014-12-14T04:05:20Z</time>
            </trkpt>
            <trkpt lon="101.346651" lat="13.697947">
                <ele>12.150000</ele>
                <time>2014-12-14T04:05:21Z</time>
            </trkpt>
            <trkpt lon="101.346835" lat="13.697600">
                <ele>12.150000</ele>
                <time>2014-12-14T04:05:31Z</time>
            </trkpt>
            <trkpt lon="101.347116" lat="13.697075">
                <ele>13.600000</ele>
                <time>2014-12-14T04:05:47Z</time>
            </trkpt>
            <trkpt lon="101.347329" lat="13.696650">
                <ele>15.520000</ele>
                <time>2014-12-14T04:06:00Z</time>
            </trkpt>
            <trkpt lon="101.347296" lat="13.696253">
                <ele>15.520000</ele>
                <time>2014-12-14T04:06:11Z</time>
            </trkpt>
            <trkpt lon="101.347160" lat="13.695714">
                <ele>14.080000</ele>
                <time>2014-12-14T04:06:26Z</time>
            </trkpt>
            <trkpt lon="101.347112" lat="13.695481">
                <ele>14.560000</ele>
                <time>2014-12-14T04:06:38Z</time>
            </trkpt>
            <trkpt lon="101.347112" lat="13.695468">
                <ele>14.080000</ele>
                <time>2014-12-14T04:07:06Z</time>
            </trkpt>
            <trkpt lon="101.347076" lat="13.695354">
                <ele>14.560000</ele>
                <time>2014-12-14T04:07:23Z</time>
            </trkpt>
            <trkpt lon="101.347177" lat="13.695149">
                <ele>18.400000</ele>
                <time>2014-12-14T04:07:34Z</time>
            </trkpt>
            <trkpt lon="101.347481" lat="13.695043">
                <ele>27.530000</ele>
                <time>2014-12-14T04:07:47Z</time>
            </trkpt>
            <trkpt lon="101.348054" lat="13.694943">
                <ele>32.820000</ele>
                <time>2014-12-14T04:08:00Z</time>
            </trkpt>
            <trkpt lon="101.348509" lat="13.694972">
                <ele>33.780000</ele>
                <time>2014-12-14T04:08:14Z</time>
            </trkpt>
            <trkpt lon="101.348840" lat="13.695032">
                <ele>31.860000</ele>
                <time>2014-12-14T04:08:22Z</time>
            </trkpt>
            <trkpt lon="101.348883" lat="13.695048">
                <ele>31.380000</ele>
                <time>2014-12-14T04:08:23Z</time>
            </trkpt>
            <trkpt lon="101.348926" lat="13.695064">
                <ele>30.900000</ele>
                <time>2014-12-14T04:08:24Z</time>
            </trkpt>
            <trkpt lon="101.349547" lat="13.695254">
                <ele>24.650000</ele>
                <time>2014-12-14T04:08:38Z</time>
            </trkpt>
            <trkpt lon="101.349598" lat="13.695257">
                <ele>24.170000</ele>
                <time>2014-12-14T04:08:39Z</time>
            </trkpt>
            <trkpt lon="101.349802" lat="13.695238">
                <ele>21.290000</ele>
                <time>2014-12-14T04:08:43Z</time>
            </trkpt>
            <trkpt lon="101.350402" lat="13.695138">
                <ele>16.960000</ele>
                <time>2014-12-14T04:08:56Z</time>
            </trkpt>
            <trkpt lon="101.350992" lat="13.695009">
                <ele>18.400000</ele>
                <time>2014-12-14T04:09:09Z</time>
            </trkpt>
            <trkpt lon="101.351033" lat="13.694993">
                <ele>18.400000</ele>
                <time>2014-12-14T04:09:10Z</time>
            </trkpt>
            <trkpt lon="101.351337" lat="13.694842">
                <ele>20.320000</ele>
                <time>2014-12-14T04:09:18Z</time>
            </trkpt>
            <trkpt lon="101.351722" lat="13.694637">
                <ele>26.570000</ele>
                <time>2014-12-14T04:09:29Z</time>
            </trkpt>
            <trkpt lon="101.351998" lat="13.694501">
                <ele>29.460000</ele>
                <time>2014-12-14T04:09:37Z</time>
            </trkpt>
            <trkpt lon="101.352005" lat="13.694470">
                <ele>29.460000</ele>
                <time>2014-12-14T04:09:38Z</time>
            </trkpt>
            <trkpt lon="101.352010" lat="13.694438">
                <ele>29.460000</ele>
                <time>2014-12-14T04:09:39Z</time>
            </trkpt>
            <trkpt lon="101.352014" lat="13.694406">
                <ele>28.980000</ele>
                <time>2014-12-14T04:09:40Z</time>
            </trkpt>
            <trkpt lon="101.352014" lat="13.694373">
                <ele>29.460000</ele>
                <time>2014-12-14T04:09:41Z</time>
            </trkpt>
            <trkpt lon="101.352050" lat="13.693747">
                <ele>25.130000</ele>
                <time>2014-12-14T04:09:58Z</time>
            </trkpt>
            <trkpt lon="101.352109" lat="13.693617">
                <ele>25.130000</ele>
                <time>2014-12-14T04:10:02Z</time>
            </trkpt>
            <trkpt lon="101.352649" lat="13.693400">
                <ele>22.730000</ele>
                <time>2014-12-14T04:10:15Z</time>
            </trkpt>
            <trkpt lon="101.353381" lat="13.693003">
                <ele>21.290000</ele>
                <time>2014-12-14T04:10:32Z</time>
            </trkpt>
            <trkpt lon="101.353683" lat="13.692828">
                <ele>20.810000</ele>
                <time>2014-12-14T04:10:39Z</time>
            </trkpt>
            <trkpt lon="101.353797" lat="13.692733">
                <ele>20.810000</ele>
                <time>2014-12-14T04:10:42Z</time>
            </trkpt>
            <trkpt lon="101.354309" lat="13.692401">
                <ele>19.840000</ele>
                <time>2014-12-14T04:10:55Z</time>
            </trkpt>
            <trkpt lon="101.354534" lat="13.692094">
                <ele>20.320000</ele>
                <time>2014-12-14T04:11:04Z</time>
            </trkpt>
            <trkpt lon="101.354282" lat="13.691453">
                <ele>20.810000</ele>
                <time>2014-12-14T04:11:22Z</time>
            </trkpt>
            <trkpt lon="101.354059" lat="13.690901">
                <ele>19.360000</ele>
                <time>2014-12-14T04:11:37Z</time>
            </trkpt>
            <trkpt lon="101.354079" lat="13.690799">
                <ele>19.360000</ele>
                <time>2014-12-14T04:11:40Z</time>
            </trkpt>
            <trkpt lon="101.353931" lat="13.690321">
                <ele>18.400000</ele>
                <time>2014-12-14T04:11:53Z</time>
            </trkpt>
            <trkpt lon="101.353727" lat="13.689798">
                <ele>18.880000</ele>
                <time>2014-12-14T04:12:08Z</time>
            </trkpt>
            <trkpt lon="101.353763" lat="13.689243">
                <ele>19.360000</ele>
                <time>2014-12-14T04:12:22Z</time>
            </trkpt>
            <trkpt lon="101.353816" lat="13.688936">
                <ele>19.840000</ele>
                <time>2014-12-14T04:12:29Z</time>
            </trkpt>
            <trkpt lon="101.353817" lat="13.688895">
                <ele>20.320000</ele>
                <time>2014-12-14T04:12:30Z</time>
            </trkpt>
            <trkpt lon="101.353813" lat="13.688856">
                <ele>20.320000</ele>
                <time>2014-12-14T04:12:31Z</time>
            </trkpt>
            <trkpt lon="101.353808" lat="13.688814">
                <ele>19.840000</ele>
                <time>2014-12-14T04:12:32Z</time>
            </trkpt>
            <trkpt lon="101.353805" lat="13.688771">
                <ele>19.840000</ele>
                <time>2014-12-14T04:12:33Z</time>
            </trkpt>
            <trkpt lon="101.353805" lat="13.688726">
                <ele>19.840000</ele>
                <time>2014-12-14T04:12:34Z</time>
            </trkpt>
            <trkpt lon="101.353810" lat="13.688682">
                <ele>20.320000</ele>
                <time>2014-12-14T04:12:35Z</time>
            </trkpt>
            <trkpt lon="101.353820" lat="13.688640">
                <ele>20.320000</ele>
                <time>2014-12-14T04:12:36Z</time>
            </trkpt>
            <trkpt lon="101.353831" lat="13.688599">
                <ele>20.320000</ele>
                <time>2014-12-14T04:12:37Z</time>
            </trkpt>
            <trkpt lon="101.353835" lat="13.688353">
                <ele>20.810000</ele>
                <time>2014-12-14T04:12:43Z</time>
            </trkpt>
            <trkpt lon="101.353826" lat="13.688313">
                <ele>20.320000</ele>
                <time>2014-12-14T04:12:44Z</time>
            </trkpt>
            <trkpt lon="101.353814" lat="13.688273">
                <ele>20.320000</ele>
                <time>2014-12-14T04:12:45Z</time>
            </trkpt>
            <trkpt lon="101.353672" lat="13.687741">
                <ele>20.810000</ele>
                <time>2014-12-14T04:12:59Z</time>
            </trkpt>
            <trkpt lon="101.353401" lat="13.687192">
                <ele>21.290000</ele>
                <time>2014-12-14T04:13:14Z</time>
            </trkpt>
            <trkpt lon="101.353120" lat="13.686604">
                <ele>21.770000</ele>
                <time>2014-12-14T04:13:28Z</time>
            </trkpt>
            <trkpt lon="101.353037" lat="13.686483">
                <ele>21.770000</ele>
                <time>2014-12-14T04:13:31Z</time>
            </trkpt>
            <trkpt lon="101.352562" lat="13.685891">
                <ele>22.730000</ele>
                <time>2014-12-14T04:13:47Z</time>
            </trkpt>
            <trkpt lon="101.352401" lat="13.685505">
                <ele>23.210000</ele>
                <time>2014-12-14T04:13:58Z</time>
            </trkpt>
            <trkpt lon="101.352372" lat="13.685494">
                <ele>23.210000</ele>
                <time>2014-12-14T04:13:59Z</time>
            </trkpt>
            <trkpt lon="101.352338" lat="13.685488">
                <ele>23.210000</ele>
                <time>2014-12-14T04:14:00Z</time>
            </trkpt>
            <trkpt lon="101.352091" lat="13.685445">
                <ele>23.690000</ele>
                <time>2014-12-14T04:14:06Z</time>
            </trkpt>
            <trkpt lon="101.352049" lat="13.685427">
                <ele>23.210000</ele>
                <time>2014-12-14T04:14:07Z</time>
            </trkpt>
            <trkpt lon="101.351259" lat="13.685176">
                <ele>23.690000</ele>
                <time>2014-12-14T04:14:24Z</time>
            </trkpt>
            <trkpt lon="101.350799" lat="13.685050">
                <ele>22.730000</ele>
                <time>2014-12-14T04:14:33Z</time>
            </trkpt>
            <trkpt lon="101.350763" lat="13.685022">
                <ele>22.250000</ele>
                <time>2014-12-14T04:14:34Z</time>
            </trkpt>
            <trkpt lon="101.350739" lat="13.684988">
                <ele>22.250000</ele>
                <time>2014-12-14T04:14:35Z</time>
            </trkpt>
            <trkpt lon="101.350755" lat="13.684874">
                <ele>22.730000</ele>
                <time>2014-12-14T04:14:38Z</time>
            </trkpt>
            <trkpt lon="101.350833" lat="13.684633">
                <ele>22.730000</ele>
                <time>2014-12-14T04:14:44Z</time>
            </trkpt>
            <trkpt lon="101.350864" lat="13.683983">
                <ele>24.650000</ele>
                <time>2014-12-14T04:14:59Z</time>
            </trkpt>
            <trkpt lon="101.350865" lat="13.683837">
                <ele>25.130000</ele>
                <time>2014-12-14T04:15:02Z</time>
            </trkpt>
            <trkpt lon="101.351036" lat="13.683609">
                <ele>26.570000</ele>
                <time>2014-12-14T04:15:09Z</time>
            </trkpt>
            <trkpt lon="101.351245" lat="13.683510">
                <ele>27.050000</ele>
                <time>2014-12-14T04:15:14Z</time>
            </trkpt>
            <trkpt lon="101.351408" lat="13.683174">
                <ele>27.050000</ele>
                <time>2014-12-14T04:15:22Z</time>
            </trkpt>
            <trkpt lon="101.351509" lat="13.682372">
                <ele>25.610000</ele>
                <time>2014-12-14T04:15:38Z</time>
            </trkpt>
            <trkpt lon="101.351570" lat="13.682094">
                <ele>25.130000</ele>
                <time>2014-12-14T04:15:44Z</time>
            </trkpt>
            <trkpt lon="101.351691" lat="13.681316">
                <ele>25.610000</ele>
                <time>2014-12-14T04:16:01Z</time>
            </trkpt>
            <trkpt lon="101.351761" lat="13.680987">
                <ele>25.610000</ele>
                <time>2014-12-14T04:16:08Z</time>
            </trkpt>
            <trkpt lon="101.351796" lat="13.680823">
                <ele>26.090000</ele>
                <time>2014-12-14T04:16:12Z</time>
            </trkpt>
            <trkpt lon="101.352084" lat="13.680240">
                <ele>25.130000</ele>
                <time>2014-12-14T04:16:28Z</time>
            </trkpt>
            <trkpt lon="101.352324" lat="13.679817">
                <ele>24.650000</ele>
                <time>2014-12-14T04:16:39Z</time>
            </trkpt>
            <trkpt lon="101.352723" lat="13.679269">
                <ele>24.170000</ele>
                <time>2014-12-14T04:16:54Z</time>
            </trkpt>
            <trkpt lon="101.353107" lat="13.678741">
                <ele>23.210000</ele>
                <time>2014-12-14T04:17:08Z</time>
            </trkpt>
            <trkpt lon="101.353532" lat="13.678203">
                <ele>21.770000</ele>
                <time>2014-12-14T04:17:23Z</time>
            </trkpt>
            <trkpt lon="101.353706" lat="13.677938">
                <ele>21.770000</ele>
                <time>2014-12-14T04:17:30Z</time>
            </trkpt>
            <trkpt lon="101.353766" lat="13.677813">
                <ele>21.770000</ele>
                <time>2014-12-14T04:17:33Z</time>
            </trkpt>
            <trkpt lon="101.353960" lat="13.677411">
                <ele>21.290000</ele>
                <time>2014-12-14T04:17:43Z</time>
            </trkpt>
            <trkpt lon="101.353988" lat="13.677231">
                <ele>21.770000</ele>
                <time>2014-12-14T04:17:47Z</time>
            </trkpt>
            <trkpt lon="101.353920" lat="13.676934">
                <ele>21.290000</ele>
                <time>2014-12-14T04:17:54Z</time>
            </trkpt>
            <trkpt lon="101.353907" lat="13.676769">
                <ele>21.770000</ele>
                <time>2014-12-14T04:17:58Z</time>
            </trkpt>
            <trkpt lon="101.353940" lat="13.676559">
                <ele>22.250000</ele>
                <time>2014-12-14T04:18:03Z</time>
            </trkpt>
            <trkpt lon="101.354047" lat="13.676321">
                <ele>23.210000</ele>
                <time>2014-12-14T04:18:10Z</time>
            </trkpt>
            <trkpt lon="101.354043" lat="13.676281">
                <ele>23.210000</ele>
                <time>2014-12-14T04:18:11Z</time>
            </trkpt>
            <trkpt lon="101.354032" lat="13.676242">
                <ele>23.210000</ele>
                <time>2014-12-14T04:18:12Z</time>
            </trkpt>
            <trkpt lon="101.353986" lat="13.676190">
                <ele>23.690000</ele>
                <time>2014-12-14T04:18:14Z</time>
            </trkpt>
            <trkpt lon="101.353578" lat="13.675934">
                <ele>22.730000</ele>
                <time>2014-12-14T04:18:28Z</time>
            </trkpt>
            <trkpt lon="101.353069" lat="13.675481">
                <ele>19.840000</ele>
                <time>2014-12-14T04:18:45Z</time>
            </trkpt>
            <trkpt lon="101.353057" lat="13.675443">
                <ele>19.840000</ele>
                <time>2014-12-14T04:18:46Z</time>
            </trkpt>
            <trkpt lon="101.352991" lat="13.675286">
                <ele>20.320000</ele>
                <time>2014-12-14T04:18:50Z</time>
            </trkpt>
            <trkpt lon="101.352843" lat="13.674869">
                <ele>22.250000</ele>
                <time>2014-12-14T04:19:00Z</time>
            </trkpt>
            <trkpt lon="101.352806" lat="13.674701">
                <ele>22.730000</ele>
                <time>2014-12-14T04:19:04Z</time>
            </trkpt>
            <trkpt lon="101.352514" lat="13.674250">
                <ele>23.690000</ele>
                <time>2014-12-14T04:19:18Z</time>
            </trkpt>
            <trkpt lon="101.351828" lat="13.674205">
                <ele>21.770000</ele>
                <time>2014-12-14T04:19:34Z</time>
            </trkpt>
            <trkpt lon="101.351731" lat="13.674207">
                <ele>21.770000</ele>
                <time>2014-12-14T04:19:36Z</time>
            </trkpt>
            <trkpt lon="101.351109" lat="13.674260">
                <ele>21.770000</ele>
                <time>2014-12-14T04:19:49Z</time>
            </trkpt>
            <trkpt lon="101.350762" lat="13.674265">
                <ele>22.730000</ele>
                <time>2014-12-14T04:19:56Z</time>
            </trkpt>
            <trkpt lon="101.350481" lat="13.674400">
                <ele>22.730000</ele>
                <time>2014-12-14T04:20:03Z</time>
            </trkpt>
            <trkpt lon="101.350162" lat="13.674783">
                <ele>18.400000</ele>
                <time>2014-12-14T04:20:14Z</time>
            </trkpt>
            <trkpt lon="101.349705" lat="13.675275">
                <ele>21.770000</ele>
                <time>2014-12-14T04:20:29Z</time>
            </trkpt>
            <trkpt lon="101.349278" lat="13.675750">
                <ele>24.170000</ele>
                <time>2014-12-14T04:20:43Z</time>
            </trkpt>
            <trkpt lon="101.348898" lat="13.675895">
                <ele>24.170000</ele>
                <time>2014-12-14T04:20:54Z</time>
            </trkpt>
            <trkpt lon="101.348855" lat="13.675878">
                <ele>24.170000</ele>
                <time>2014-12-14T04:20:55Z</time>
            </trkpt>
            <trkpt lon="101.348681" lat="13.675803">
                <ele>23.210000</ele>
                <time>2014-12-14T04:20:59Z</time>
            </trkpt>
            <trkpt lon="101.348152" lat="13.675543">
                <ele>22.250000</ele>
                <time>2014-12-14T04:21:12Z</time>
            </trkpt>
            <trkpt lon="101.348042" lat="13.675462">
                <ele>21.770000</ele>
                <time>2014-12-14T04:21:15Z</time>
            </trkpt>
            <trkpt lon="101.348002" lat="13.675432">
                <ele>21.770000</ele>
                <time>2014-12-14T04:21:16Z</time>
            </trkpt>
            <trkpt lon="101.347675" lat="13.675263">
                <ele>21.290000</ele>
                <time>2014-12-14T04:21:23Z</time>
            </trkpt>
            <trkpt lon="101.347627" lat="13.675247">
                <ele>20.810000</ele>
                <time>2014-12-14T04:21:24Z</time>
            </trkpt>
            <trkpt lon="101.347583" lat="13.675228">
                <ele>20.810000</ele>
                <time>2014-12-14T04:21:25Z</time>
            </trkpt>
            <trkpt lon="101.347540" lat="13.675204">
                <ele>20.810000</ele>
                <time>2014-12-14T04:21:26Z</time>
            </trkpt>
            <trkpt lon="101.347500" lat="13.675180">
                <ele>20.320000</ele>
                <time>2014-12-14T04:21:27Z</time>
            </trkpt>
            <trkpt lon="101.347462" lat="13.675153">
                <ele>20.320000</ele>
                <time>2014-12-14T04:21:28Z</time>
            </trkpt>
            <trkpt lon="101.347425" lat="13.675127">
                <ele>19.840000</ele>
                <time>2014-12-14T04:21:29Z</time>
            </trkpt>
            <trkpt lon="101.347386" lat="13.675103">
                <ele>19.840000</ele>
                <time>2014-12-14T04:21:30Z</time>
            </trkpt>
            <trkpt lon="101.346670" lat="13.674704">
                <ele>19.360000</ele>
                <time>2014-12-14T04:21:46Z</time>
            </trkpt>
            <trkpt lon="101.345993" lat="13.674419">
                <ele>18.880000</ele>
                <time>2014-12-14T04:22:02Z</time>
            </trkpt>
            <trkpt lon="101.345964" lat="13.674436">
                <ele>18.880000</ele>
                <time>2014-12-14T04:22:03Z</time>
            </trkpt>
            <trkpt lon="101.345925" lat="13.674496">
                <ele>19.360000</ele>
                <time>2014-12-14T04:22:05Z</time>
            </trkpt>
            <trkpt lon="101.345913" lat="13.674532">
                <ele>19.360000</ele>
                <time>2014-12-14T04:22:06Z</time>
            </trkpt>
            <trkpt lon="101.345906" lat="13.674575">
                <ele>18.880000</ele>
                <time>2014-12-14T04:22:07Z</time>
            </trkpt>
            <trkpt lon="101.345699" lat="13.675391">
                <ele>19.840000</ele>
                <time>2014-12-14T04:22:24Z</time>
            </trkpt>
            <trkpt lon="101.345640" lat="13.675690">
                <ele>20.320000</ele>
                <time>2014-12-14T04:22:30Z</time>
            </trkpt>
            <trkpt lon="101.345509" lat="13.675986">
                <ele>20.810000</ele>
                <time>2014-12-14T04:22:36Z</time>
            </trkpt>
            <trkpt lon="101.345311" lat="13.676822">
                <ele>18.880000</ele>
                <time>2014-12-14T04:22:52Z</time>
            </trkpt>
            <trkpt lon="101.345371" lat="13.677245">
                <ele>18.880000</ele>
                <time>2014-12-14T04:23:00Z</time>
            </trkpt>
            <trkpt lon="101.345144" lat="13.677589">
                <ele>18.880000</ele>
                <time>2014-12-14T04:23:09Z</time>
            </trkpt>
            <trkpt lon="101.344329" lat="13.678060">
                <ele>17.920000</ele>
                <time>2014-12-14T04:23:26Z</time>
            </trkpt>
            <trkpt lon="101.344151" lat="13.678050">
                <ele>17.920000</ele>
                <time>2014-12-14T04:23:31Z</time>
            </trkpt>
            <trkpt lon="101.343891" lat="13.677762">
                <ele>18.400000</ele>
                <time>2014-12-14T04:23:39Z</time>
            </trkpt>
            <trkpt lon="101.343722" lat="13.677677">
                <ele>17.920000</ele>
                <time>2014-12-14T04:23:43Z</time>
            </trkpt>
            <trkpt lon="101.343508" lat="13.677670">
                <ele>17.920000</ele>
                <time>2014-12-14T04:23:48Z</time>
            </trkpt>
            <trkpt lon="101.343114" lat="13.677788">
                <ele>19.360000</ele>
                <time>2014-12-14T04:23:58Z</time>
            </trkpt>
            <trkpt lon="101.342991" lat="13.677814">
                <ele>18.880000</ele>
                <time>2014-12-14T04:24:01Z</time>
            </trkpt>
            <trkpt lon="101.342451" lat="13.677859">
                <ele>18.880000</ele>
                <time>2014-12-14T04:24:12Z</time>
            </trkpt>
            <trkpt lon="101.342351" lat="13.677876">
                <ele>18.880000</ele>
                <time>2014-12-14T04:24:14Z</time>
            </trkpt>
            <trkpt lon="101.342197" lat="13.677926">
                <ele>18.400000</ele>
                <time>2014-12-14T04:24:17Z</time>
            </trkpt>
            <trkpt lon="101.341972" lat="13.678085">
                <ele>17.920000</ele>
                <time>2014-12-14T04:24:22Z</time>
            </trkpt>
            <trkpt lon="101.341492" lat="13.678604">
                <ele>17.440000</ele>
                <time>2014-12-14T04:24:36Z</time>
            </trkpt>
            <trkpt lon="101.341455" lat="13.678629">
                <ele>17.440000</ele>
                <time>2014-12-14T04:24:37Z</time>
            </trkpt>
            <trkpt lon="101.341370" lat="13.678676">
                <ele>17.920000</ele>
                <time>2014-12-14T04:24:39Z</time>
            </trkpt>
            <trkpt lon="101.341276" lat="13.678715">
                <ele>17.920000</ele>
                <time>2014-12-14T04:24:41Z</time>
            </trkpt>
            <trkpt lon="101.341080" lat="13.678942">
                <ele>17.920000</ele>
                <time>2014-12-14T04:24:47Z</time>
            </trkpt>
            <trkpt lon="101.340756" lat="13.679804">
                <ele>15.520000</ele>
                <time>2014-12-14T04:25:05Z</time>
            </trkpt>
            <trkpt lon="101.340620" lat="13.680427">
                <ele>14.560000</ele>
                <time>2014-12-14T04:25:18Z</time>
            </trkpt>
            <trkpt lon="101.340353" lat="13.681090">
                <ele>14.560000</ele>
                <time>2014-12-14T04:25:33Z</time>
            </trkpt>
            <trkpt lon="101.340223" lat="13.681435">
                <ele>14.080000</ele>
                <time>2014-12-14T04:25:41Z</time>
            </trkpt>
            <trkpt lon="101.340211" lat="13.681560">
                <ele>14.560000</ele>
                <time>2014-12-14T04:25:44Z</time>
            </trkpt>
            <trkpt lon="101.340132" lat="13.681723">
                <ele>13.600000</ele>
                <time>2014-12-14T04:25:48Z</time>
            </trkpt>
            <trkpt lon="101.339695" lat="13.682227">
                <ele>13.120000</ele>
                <time>2014-12-14T04:26:02Z</time>
            </trkpt>
            <trkpt lon="101.339530" lat="13.682990">
                <ele>13.120000</ele>
                <time>2014-12-14T04:26:18Z</time>
            </trkpt>
            <trkpt lon="101.339540" lat="13.683286">
                <ele>14.080000</ele>
                <time>2014-12-14T04:26:26Z</time>
            </trkpt>
            <trkpt lon="101.340044" lat="13.683535">
                <ele>16.480000</ele>
                <time>2014-12-14T04:26:40Z</time>
            </trkpt>
            <trkpt lon="101.340726" lat="13.683677">
                <ele>16.480000</ele>
                <time>2014-12-14T04:26:54Z</time>
            </trkpt>
            <trkpt lon="101.341273" lat="13.683506">
                <ele>16.960000</ele>
                <time>2014-12-14T04:27:06Z</time>
            </trkpt>
            <trkpt lon="101.341798" lat="13.683516">
                <ele>17.440000</ele>
                <time>2014-12-14T04:27:17Z</time>
            </trkpt>
            <trkpt lon="101.342007" lat="13.683561">
                <ele>17.440000</ele>
                <time>2014-12-14T04:27:22Z</time>
            </trkpt>
            <trkpt lon="101.342849" lat="13.683770">
                <ele>16.480000</ele>
                <time>2014-12-14T04:27:42Z</time>
            </trkpt>
            <trkpt lon="101.343569" lat="13.683876">
                <ele>16.960000</ele>
                <time>2014-12-14T04:27:58Z</time>
            </trkpt>
            <trkpt lon="101.344320" lat="13.683898">
                <ele>17.440000</ele>
                <time>2014-12-14T04:28:16Z</time>
            </trkpt>
            <trkpt lon="101.344441" lat="13.683887">
                <ele>16.960000</ele>
                <time>2014-12-14T04:28:20Z</time>
            </trkpt>
            <trkpt lon="101.344722" lat="13.684052">
                <ele>15.040000</ele>
                <time>2014-12-14T04:28:29Z</time>
            </trkpt>
            <trkpt lon="101.344867" lat="13.684148">
                <ele>15.040000</ele>
                <time>2014-12-14T04:28:33Z</time>
            </trkpt>
            <trkpt lon="101.345155" lat="13.684216">
                <ele>16.000000</ele>
                <time>2014-12-14T04:28:40Z</time>
            </trkpt>
            <trkpt lon="101.345493" lat="13.684451">
                <ele>15.520000</ele>
                <time>2014-12-14T04:28:52Z</time>
            </trkpt>
            <trkpt lon="101.345506" lat="13.684461">
                <ele>15.520000</ele>
                <time>2014-12-14T04:28:53Z</time>
            </trkpt>
            <trkpt lon="101.345539" lat="13.684475">
                <ele>15.040000</ele>
                <time>2014-12-14T04:29:06Z</time>
            </trkpt>
            <trkpt lon="101.345597" lat="13.684450">
                <ele>15.520000</ele>
                <time>2014-12-14T04:29:20Z</time>
            </trkpt>
            <trkpt lon="101.345603" lat="13.684444">
                <ele>15.520000</ele>
                <time>2014-12-14T04:29:21Z</time>
            </trkpt>
            <trkpt lon="101.345664" lat="13.684364">
                <ele>15.040000</ele>
                <time>2014-12-14T04:29:30Z</time>
            </trkpt>
            <trkpt lon="101.345734" lat="13.684127">
                <ele>15.520000</ele>
                <time>2014-12-14T04:29:40Z</time>
            </trkpt>
            <trkpt lon="101.345899" lat="13.684022">
                <ele>15.520000</ele>
                <time>2014-12-14T04:29:47Z</time>
            </trkpt>
            <trkpt lon="101.345918" lat="13.683918">
                <ele>15.520000</ele>
                <time>2014-12-14T04:29:52Z</time>
            </trkpt>
            <trkpt lon="101.345969" lat="13.683880">
                <ele>16.000000</ele>
                <time>2014-12-14T04:30:05Z</time>
            </trkpt>
            <trkpt lon="101.346005" lat="13.683882">
                <ele>17.440000</ele>
                <time>2014-12-14T04:30:23Z</time>
            </trkpt>
            <trkpt lon="101.346005" lat="13.683882">
                <ele>17.440000</ele>
                <time>2014-12-14T04:30:25Z</time>
            </trkpt>
            <trkpt lon="101.346098" lat="13.683852">
                <ele>19.840000</ele>
                <time>2014-12-14T04:30:40Z</time>
            </trkpt>
            <trkpt lon="101.346145" lat="13.683878">
                <ele>21.290000</ele>
                <time>2014-12-14T04:30:50Z</time>
            </trkpt>
            <trkpt lon="101.346177" lat="13.683918">
                <ele>21.290000</ele>
                <time>2014-12-14T04:30:54Z</time>
            </trkpt>
            <trkpt lon="101.346188" lat="13.684292">
                <ele>19.840000</ele>
                <time>2014-12-14T04:31:06Z</time>
            </trkpt>
            <trkpt lon="101.346264" lat="13.684778">
                <ele>20.320000</ele>
                <time>2014-12-14T04:31:20Z</time>
            </trkpt>
            <trkpt lon="101.346288" lat="13.684809">
                <ele>20.320000</ele>
                <time>2014-12-14T04:31:21Z</time>
            </trkpt>
            <trkpt lon="101.346348" lat="13.684871">
                <ele>19.840000</ele>
                <time>2014-12-14T04:31:23Z</time>
            </trkpt>
            <trkpt lon="101.346535" lat="13.685039">
                <ele>18.400000</ele>
                <time>2014-12-14T04:31:29Z</time>
            </trkpt>
            <trkpt lon="101.346508" lat="13.685079">
                <ele>17.920000</ele>
                <time>2014-12-14T04:31:33Z</time>
            </trkpt>
            <trkpt lon="101.346196" lat="13.685306">
                <ele>16.960000</ele>
                <time>2014-12-14T04:31:44Z</time>
            </trkpt>
            <trkpt lon="101.346189" lat="13.685332">
                <ele>16.960000</ele>
                <time>2014-12-14T04:31:45Z</time>
            </trkpt>
            <trkpt lon="101.346147" lat="13.685601">
                <ele>16.480000</ele>
                <time>2014-12-14T04:31:52Z</time>
            </trkpt>
            <trkpt lon="101.346165" lat="13.685796">
                <ele>17.440000</ele>
                <time>2014-12-14T04:31:57Z</time>
            </trkpt>
            <trkpt lon="101.346120" lat="13.685841">
                <ele>18.400000</ele>
                <time>2014-12-14T04:32:00Z</time>
            </trkpt>
            <trkpt lon="101.345636" lat="13.685999">
                <ele>18.880000</ele>
                <time>2014-12-14T04:32:11Z</time>
            </trkpt>
            <trkpt lon="101.344828" lat="13.686203">
                <ele>17.440000</ele>
                <time>2014-12-14T04:32:26Z</time>
            </trkpt>
            <trkpt lon="101.344335" lat="13.686380">
                <ele>16.480000</ele>
                <time>2014-12-14T04:32:38Z</time>
            </trkpt>
            <trkpt lon="101.344347" lat="13.686445">
                <ele>16.000000</ele>
                <time>2014-12-14T04:32:41Z</time>
            </trkpt>
            <trkpt lon="101.344292" lat="13.686594">
                <ele>16.480000</ele>
                <time>2014-12-14T04:32:49Z</time>
            </trkpt>
            <trkpt lon="101.344394" lat="13.686988">
                <ele>15.520000</ele>
                <time>2014-12-14T04:33:01Z</time>
            </trkpt>
            <trkpt lon="101.344385" lat="13.687208">
                <ele>15.040000</ele>
                <time>2014-12-14T04:33:09Z</time>
            </trkpt>
            <trkpt lon="101.344323" lat="13.687273">
                <ele>16.960000</ele>
                <time>2014-12-14T04:33:14Z</time>
            </trkpt>
            <trkpt lon="101.344298" lat="13.687280">
                <ele>17.440000</ele>
                <time>2014-12-14T04:33:15Z</time>
            </trkpt>
            <trkpt lon="101.343893" lat="13.687284">
                <ele>17.920000</ele>
                <time>2014-12-14T04:33:26Z</time>
            </trkpt>
            <trkpt lon="101.343845" lat="13.687286">
                <ele>17.920000</ele>
                <time>2014-12-14T04:33:27Z</time>
            </trkpt>
            <trkpt lon="101.343274" lat="13.687370">
                <ele>18.400000</ele>
                <time>2014-12-14T04:33:40Z</time>
            </trkpt>
            <trkpt lon="101.342438" lat="13.687481">
                <ele>15.040000</ele>
                <time>2014-12-14T04:33:56Z</time>
            </trkpt>
            <trkpt lon="101.341504" lat="13.687729">
                <ele>12.150000</ele>
                <time>2014-12-14T04:34:12Z</time>
            </trkpt>
            <trkpt lon="101.340547" lat="13.687953">
                <ele>12.150000</ele>
                <time>2014-12-14T04:34:28Z</time>
            </trkpt>
            <trkpt lon="101.340493" lat="13.687952">
                <ele>12.150000</ele>
                <time>2014-12-14T04:34:29Z</time>
            </trkpt>
            <trkpt lon="101.339686" lat="13.687973">
                <ele>11.190000</ele>
                <time>2014-12-14T04:34:43Z</time>
            </trkpt>
            <trkpt lon="101.338903" lat="13.687929">
                <ele>10.230000</ele>
                <time>2014-12-14T04:34:57Z</time>
            </trkpt>
            <trkpt lon="101.338842" lat="13.687941">
                <ele>10.230000</ele>
                <time>2014-12-14T04:34:59Z</time>
            </trkpt>
            <trkpt lon="101.338884" lat="13.688175">
                <ele>11.670000</ele>
                <time>2014-12-14T04:35:07Z</time>
            </trkpt>
            <trkpt lon="101.338892" lat="13.688217">
                <ele>11.670000</ele>
                <time>2014-12-14T04:35:08Z</time>
            </trkpt>
            <trkpt lon="101.339074" lat="13.688605">
                <ele>12.150000</ele>
                <time>2014-12-14T04:35:17Z</time>
            </trkpt>
            <trkpt lon="101.339283" lat="13.688981">
                <ele>10.710000</ele>
                <time>2014-12-14T04:35:25Z</time>
            </trkpt>
            <trkpt lon="101.339287" lat="13.689036">
                <ele>10.710000</ele>
                <time>2014-12-14T04:35:26Z</time>
            </trkpt>
            <trkpt lon="101.339277" lat="13.689078">
                <ele>10.710000</ele>
                <time>2014-12-14T04:35:27Z</time>
            </trkpt>
            <trkpt lon="101.339252" lat="13.689127">
                <ele>10.710000</ele>
                <time>2014-12-14T04:35:28Z</time>
            </trkpt>
            <trkpt lon="101.339213" lat="13.689169">
                <ele>10.710000</ele>
                <time>2014-12-14T04:35:29Z</time>
            </trkpt>
            <trkpt lon="101.339163" lat="13.689205">
                <ele>10.710000</ele>
                <time>2014-12-14T04:35:30Z</time>
            </trkpt>
            <trkpt lon="101.339109" lat="13.689234">
                <ele>10.710000</ele>
                <time>2014-12-14T04:35:31Z</time>
            </trkpt>
            <trkpt lon="101.339054" lat="13.689263">
                <ele>10.710000</ele>
                <time>2014-12-14T04:35:32Z</time>
            </trkpt>
            <trkpt lon="101.338898" lat="13.689365">
                <ele>10.710000</ele>
                <time>2014-12-14T04:35:35Z</time>
            </trkpt>
            <trkpt lon="101.338487" lat="13.689642">
                <ele>11.190000</ele>
                <time>2014-12-14T04:35:43Z</time>
            </trkpt>
            <trkpt lon="101.338443" lat="13.689681">
                <ele>11.190000</ele>
                <time>2014-12-14T04:35:44Z</time>
            </trkpt>
            <trkpt lon="101.338402" lat="13.689722">
                <ele>11.190000</ele>
                <time>2014-12-14T04:35:45Z</time>
            </trkpt>
            <trkpt lon="101.338301" lat="13.689842">
                <ele>11.670000</ele>
                <time>2014-12-14T04:35:48Z</time>
            </trkpt>
            <trkpt lon="101.338288" lat="13.689884">
                <ele>11.670000</ele>
                <time>2014-12-14T04:35:49Z</time>
            </trkpt>
            <trkpt lon="101.338283" lat="13.689929">
                <ele>11.190000</ele>
                <time>2014-12-14T04:35:50Z</time>
            </trkpt>
            <trkpt lon="101.338282" lat="13.689977">
                <ele>11.670000</ele>
                <time>2014-12-14T04:35:51Z</time>
            </trkpt>
            <trkpt lon="101.338278" lat="13.690025">
                <ele>11.670000</ele>
                <time>2014-12-14T04:35:52Z</time>
            </trkpt>
            <trkpt lon="101.338234" lat="13.690228">
                <ele>11.670000</ele>
                <time>2014-12-14T04:35:56Z</time>
            </trkpt>
            <trkpt lon="101.338213" lat="13.690278">
                <ele>11.670000</ele>
                <time>2014-12-14T04:35:57Z</time>
            </trkpt>
            <trkpt lon="101.337901" lat="13.691185">
                <ele>10.710000</ele>
                <time>2014-12-14T04:36:13Z</time>
            </trkpt>
            <trkpt lon="101.337855" lat="13.691419">
                <ele>10.710000</ele>
                <time>2014-12-14T04:36:17Z</time>
            </trkpt>
            <trkpt lon="101.337864" lat="13.691475">
                <ele>10.710000</ele>
                <time>2014-12-14T04:36:18Z</time>
            </trkpt>
            <trkpt lon="101.337888" lat="13.691526">
                <ele>10.710000</ele>
                <time>2014-12-14T04:36:19Z</time>
            </trkpt>
            <trkpt lon="101.337925" lat="13.691569">
                <ele>10.710000</ele>
                <time>2014-12-14T04:36:20Z</time>
            </trkpt>
            <trkpt lon="101.337973" lat="13.691604">
                <ele>10.230000</ele>
                <time>2014-12-14T04:36:21Z</time>
            </trkpt>
            <trkpt lon="101.338026" lat="13.691628">
                <ele>10.230000</ele>
                <time>2014-12-14T04:36:22Z</time>
            </trkpt>
            <trkpt lon="101.338082" lat="13.691646">
                <ele>10.230000</ele>
                <time>2014-12-14T04:36:23Z</time>
            </trkpt>
            <trkpt lon="101.338139" lat="13.691662">
                <ele>10.230000</ele>
                <time>2014-12-14T04:36:24Z</time>
            </trkpt>
            <trkpt lon="101.338246" lat="13.691697">
                <ele>10.230000</ele>
                <time>2014-12-14T04:36:26Z</time>
            </trkpt>
            <trkpt lon="101.338284" lat="13.691731">
                <ele>10.230000</ele>
                <time>2014-12-14T04:36:27Z</time>
            </trkpt>
            <trkpt lon="101.338304" lat="13.691778">
                <ele>9.750000</ele>
                <time>2014-12-14T04:36:28Z</time>
            </trkpt>
            <trkpt lon="101.338314" lat="13.691832">
                <ele>9.750000</ele>
                <time>2014-12-14T04:36:29Z</time>
            </trkpt>
            <trkpt lon="101.338319" lat="13.691888">
                <ele>9.750000</ele>
                <time>2014-12-14T04:36:30Z</time>
            </trkpt>
            <trkpt lon="101.338319" lat="13.691945">
                <ele>9.750000</ele>
                <time>2014-12-14T04:36:31Z</time>
            </trkpt>
            <trkpt lon="101.338318" lat="13.692003">
                <ele>9.750000</ele>
                <time>2014-12-14T04:36:32Z</time>
            </trkpt>
            <trkpt lon="101.338376" lat="13.692777">
                <ele>10.710000</ele>
                <time>2014-12-14T04:36:47Z</time>
            </trkpt>
            <trkpt lon="101.338294" lat="13.693081">
                <ele>10.230000</ele>
                <time>2014-12-14T04:36:57Z</time>
            </trkpt>
            <trkpt lon="101.338269" lat="13.693103">
                <ele>10.230000</ele>
                <time>2014-12-14T04:36:58Z</time>
            </trkpt>
            <trkpt lon="101.338241" lat="13.693114">
                <ele>10.230000</ele>
                <time>2014-12-14T04:36:59Z</time>
            </trkpt>
            <trkpt lon="101.338212" lat="13.693109">
                <ele>10.230000</ele>
                <time>2014-12-14T04:37:00Z</time>
            </trkpt>
            <trkpt lon="101.338190" lat="13.693100">
                <ele>10.230000</ele>
                <time>2014-12-14T04:37:01Z</time>
            </trkpt>
            <trkpt lon="101.338130" lat="13.693091">
                <ele>10.230000</ele>
                <time>2014-12-14T04:37:03Z</time>
            </trkpt>
            <trkpt lon="101.338097" lat="13.693107">
                <ele>10.230000</ele>
                <time>2014-12-14T04:37:04Z</time>
            </trkpt>
            <trkpt lon="101.338071" lat="13.693135">
                <ele>9.750000</ele>
                <time>2014-12-14T04:37:05Z</time>
            </trkpt>
            <trkpt lon="101.338050" lat="13.693173">
                <ele>9.750000</ele>
                <time>2014-12-14T04:37:06Z</time>
            </trkpt>
            <trkpt lon="101.338035" lat="13.693216">
                <ele>9.270000</ele>
                <time>2014-12-14T04:37:07Z</time>
            </trkpt>
            <trkpt lon="101.338017" lat="13.693258">
                <ele>9.270000</ele>
                <time>2014-12-14T04:37:08Z</time>
            </trkpt>
            <trkpt lon="101.337975" lat="13.693335">
                <ele>8.790000</ele>
                <time>2014-12-14T04:37:10Z</time>
            </trkpt>
            <trkpt lon="101.337953" lat="13.693371">
                <ele>8.790000</ele>
                <time>2014-12-14T04:37:11Z</time>
            </trkpt>
            <trkpt lon="101.337622" lat="13.693783">
                <ele>7.830000</ele>
                <time>2014-12-14T04:37:22Z</time>
            </trkpt>
            <trkpt lon="101.337470" lat="13.693900">
                <ele>7.830000</ele>
                <time>2014-12-14T04:37:26Z</time>
            </trkpt>
            <trkpt lon="101.337441" lat="13.693934">
                <ele>7.830000</ele>
                <time>2014-12-14T04:37:27Z</time>
            </trkpt>
            <trkpt lon="101.337419" lat="13.693972">
                <ele>7.830000</ele>
                <time>2014-12-14T04:37:28Z</time>
            </trkpt>
            <trkpt lon="101.337406" lat="13.694014">
                <ele>7.830000</ele>
                <time>2014-12-14T04:37:29Z</time>
            </trkpt>
            <trkpt lon="101.337401" lat="13.694059">
                <ele>7.830000</ele>
                <time>2014-12-14T04:37:30Z</time>
            </trkpt>
            <trkpt lon="101.337396" lat="13.694105">
                <ele>7.830000</ele>
                <time>2014-12-14T04:37:31Z</time>
            </trkpt>
            <trkpt lon="101.337391" lat="13.694152">
                <ele>7.830000</ele>
                <time>2014-12-14T04:37:32Z</time>
            </trkpt>
            <trkpt lon="101.337380" lat="13.694459">
                <ele>7.830000</ele>
                <time>2014-12-14T04:37:38Z</time>
            </trkpt>
            <trkpt lon="101.337368" lat="13.695120">
                <ele>7.830000</ele>
                <time>2014-12-14T04:37:52Z</time>
            </trkpt>
            <trkpt lon="101.337360" lat="13.695214">
                <ele>7.830000</ele>
                <time>2014-12-14T04:37:54Z</time>
            </trkpt>
            <trkpt lon="101.337300" lat="13.695523">
                <ele>8.310000</ele>
                <time>2014-12-14T04:38:01Z</time>
            </trkpt>
            <trkpt lon="101.337285" lat="13.695561">
                <ele>8.310000</ele>
                <time>2014-12-14T04:38:02Z</time>
            </trkpt>
            <trkpt lon="101.336982" lat="13.696335">
                <ele>8.310000</ele>
                <time>2014-12-14T04:38:19Z</time>
            </trkpt>
            <trkpt lon="101.336960" lat="13.696383">
                <ele>8.310000</ele>
                <time>2014-12-14T04:38:20Z</time>
            </trkpt>
            <trkpt lon="101.336938" lat="13.696429">
                <ele>8.310000</ele>
                <time>2014-12-14T04:38:21Z</time>
            </trkpt>
            <trkpt lon="101.336914" lat="13.696473">
                <ele>8.310000</ele>
                <time>2014-12-14T04:38:22Z</time>
            </trkpt>
            <trkpt lon="101.336828" lat="13.696654">
                <ele>8.790000</ele>
                <time>2014-12-14T04:38:26Z</time>
            </trkpt>
            <trkpt lon="101.336799" lat="13.696693">
                <ele>8.790000</ele>
                <time>2014-12-14T04:38:27Z</time>
            </trkpt>
            <trkpt lon="101.336740" lat="13.696758">
                <ele>8.310000</ele>
                <time>2014-12-14T04:38:29Z</time>
            </trkpt>
            <trkpt lon="101.336418" lat="13.697286">
                <ele>8.310000</ele>
                <time>2014-12-14T04:38:43Z</time>
            </trkpt>
            <trkpt lon="101.336408" lat="13.697315">
                <ele>8.310000</ele>
                <time>2014-12-14T04:38:44Z</time>
            </trkpt>
            <trkpt lon="101.336394" lat="13.697341">
                <ele>8.310000</ele>
                <time>2014-12-14T04:38:45Z</time>
            </trkpt>
            <trkpt lon="101.336372" lat="13.697357">
                <ele>8.310000</ele>
                <time>2014-12-14T04:38:46Z</time>
            </trkpt>
            <trkpt lon="101.336349" lat="13.697361">
                <ele>8.310000</ele>
                <time>2014-12-14T04:38:47Z</time>
            </trkpt>
            <trkpt lon="101.336332" lat="13.697357">
                <ele>8.310000</ele>
                <time>2014-12-14T04:38:48Z</time>
            </trkpt>
            <trkpt lon="101.336316" lat="13.697352">
                <ele>8.790000</ele>
                <time>2014-12-14T04:38:49Z</time>
            </trkpt>
            <trkpt lon="101.336296" lat="13.697350">
                <ele>8.790000</ele>
                <time>2014-12-14T04:38:50Z</time>
            </trkpt>
            <trkpt lon="101.336268" lat="13.697346">
                <ele>8.790000</ele>
                <time>2014-12-14T04:38:51Z</time>
            </trkpt>
            <trkpt lon="101.336236" lat="13.697342">
                <ele>9.270000</ele>
                <time>2014-12-14T04:38:52Z</time>
            </trkpt>
            <trkpt lon="101.336205" lat="13.697342">
                <ele>9.270000</ele>
                <time>2014-12-14T04:38:53Z</time>
            </trkpt>
            <trkpt lon="101.336173" lat="13.697345">
                <ele>9.270000</ele>
                <time>2014-12-14T04:38:54Z</time>
            </trkpt>
            <trkpt lon="101.335951" lat="13.697340">
                <ele>10.230000</ele>
                <time>2014-12-14T04:39:02Z</time>
            </trkpt>
            <trkpt lon="101.335931" lat="13.697352">
                <ele>10.710000</ele>
                <time>2014-12-14T04:39:03Z</time>
            </trkpt>
            <trkpt lon="101.335912" lat="13.697366">
                <ele>10.710000</ele>
                <time>2014-12-14T04:39:04Z</time>
            </trkpt>
            <trkpt lon="101.335889" lat="13.697380">
                <ele>10.710000</ele>
                <time>2014-12-14T04:39:05Z</time>
            </trkpt>
            <trkpt lon="101.335864" lat="13.697391">
                <ele>10.710000</ele>
                <time>2014-12-14T04:39:06Z</time>
            </trkpt>
            <trkpt lon="101.335838" lat="13.697401">
                <ele>10.710000</ele>
                <time>2014-12-14T04:39:07Z</time>
            </trkpt>
            <trkpt lon="101.335809" lat="13.697409">
                <ele>10.710000</ele>
                <time>2014-12-14T04:39:08Z</time>
            </trkpt>
            <trkpt lon="101.335516" lat="13.697517">
                <ele>10.230000</ele>
                <time>2014-12-14T04:39:19Z</time>
            </trkpt>
            <trkpt lon="101.335472" lat="13.697529">
                <ele>8.790000</ele>
                <time>2014-12-14T04:39:32Z</time>
            </trkpt>
            <trkpt lon="101.335310" lat="13.697553">
                <ele>8.310000</ele>
                <time>2014-12-14T04:39:43Z</time>
            </trkpt>
            <trkpt lon="101.335288" lat="13.697541">
                <ele>8.310000</ele>
                <time>2014-12-14T04:39:44Z</time>
            </trkpt>
            <trkpt lon="101.335258" lat="13.697497">
                <ele>8.310000</ele>
                <time>2014-12-14T04:39:46Z</time>
            </trkpt>
            <trkpt lon="101.335237" lat="13.697490">
                <ele>8.310000</ele>
                <time>2014-12-14T04:39:47Z</time>
            </trkpt>
            <trkpt lon="101.335211" lat="13.697491">
                <ele>8.310000</ele>
                <time>2014-12-14T04:39:48Z</time>
            </trkpt>
            <trkpt lon="101.334988" lat="13.697450">
                <ele>7.830000</ele>
                <time>2014-12-14T04:39:54Z</time>
            </trkpt>
            <trkpt lon="101.334945" lat="13.697444">
                <ele>7.830000</ele>
                <time>2014-12-14T04:39:55Z</time>
            </trkpt>
            <trkpt lon="101.334901" lat="13.697448">
                <ele>7.830000</ele>
                <time>2014-12-14T04:39:56Z</time>
            </trkpt>
            <trkpt lon="101.334855" lat="13.697456">
                <ele>7.350000</ele>
                <time>2014-12-14T04:39:57Z</time>
            </trkpt>
            <trkpt lon="101.334808" lat="13.697464">
                <ele>7.350000</ele>
                <time>2014-12-14T04:39:58Z</time>
            </trkpt>
            <trkpt lon="101.334585" lat="13.697516">
                <ele>7.830000</ele>
                <time>2014-12-14T04:40:03Z</time>
            </trkpt>
            <trkpt lon="101.334548" lat="13.697538">
                <ele>7.830000</ele>
                <time>2014-12-14T04:40:04Z</time>
            </trkpt>
            <trkpt lon="101.334518" lat="13.697567">
                <ele>7.830000</ele>
                <time>2014-12-14T04:40:05Z</time>
            </trkpt>
            <trkpt lon="101.334491" lat="13.697600">
                <ele>7.830000</ele>
                <time>2014-12-14T04:40:06Z</time>
            </trkpt>
            <trkpt lon="101.334463" lat="13.697636">
                <ele>7.830000</ele>
                <time>2014-12-14T04:40:07Z</time>
            </trkpt>
            <trkpt lon="101.334433" lat="13.697671">
                <ele>7.830000</ele>
                <time>2014-12-14T04:40:08Z</time>
            </trkpt>
            <trkpt lon="101.333897" lat="13.698087">
                <ele>7.350000</ele>
                <time>2014-12-14T04:40:22Z</time>
            </trkpt>
            <trkpt lon="101.333821" lat="13.698155">
                <ele>7.350000</ele>
                <time>2014-12-14T04:40:25Z</time>
            </trkpt>
            <trkpt lon="101.333827" lat="13.698171">
                <ele>7.830000</ele>
                <time>2014-12-14T04:40:27Z</time>
            </trkpt>
            <trkpt lon="101.333842" lat="13.698214">
                <ele>7.830000</ele>
                <time>2014-12-14T04:40:30Z</time>
            </trkpt>
            <trkpt lon="101.333828" lat="13.698236">
                <ele>7.830000</ele>
                <time>2014-12-14T04:40:31Z</time>
            </trkpt>
            <trkpt lon="101.333806" lat="13.698254">
                <ele>7.830000</ele>
                <time>2014-12-14T04:40:32Z</time>
            </trkpt>
            <trkpt lon="101.333778" lat="13.698272">
                <ele>7.830000</ele>
                <time>2014-12-14T04:40:33Z</time>
            </trkpt>
            <trkpt lon="101.333373" lat="13.698645">
                <ele>8.790000</ele>
                <time>2014-12-14T04:40:47Z</time>
            </trkpt>
            <trkpt lon="101.332964" lat="13.698900">
                <ele>8.790000</ele>
                <time>2014-12-14T04:41:01Z</time>
            </trkpt>
            <trkpt lon="101.332712" lat="13.699148">
                <ele>8.790000</ele>
                <time>2014-12-14T04:41:14Z</time>
            </trkpt>
            <trkpt lon="101.332664" lat="13.699375">
                <ele>8.310000</ele>
                <time>2014-12-14T04:41:24Z</time>
            </trkpt>
            <trkpt lon="101.332657" lat="13.699390">
                <ele>8.310000</ele>
                <time>2014-12-14T04:41:25Z</time>
            </trkpt>
            <trkpt lon="101.332651" lat="13.699406">
                <ele>8.310000</ele>
                <time>2014-12-14T04:41:26Z</time>
            </trkpt>
            <trkpt lon="101.332649" lat="13.699428">
                <ele>8.310000</ele>
                <time>2014-12-14T04:41:27Z</time>
            </trkpt>
            <trkpt lon="101.332644" lat="13.699452">
                <ele>8.310000</ele>
                <time>2014-12-14T04:41:28Z</time>
            </trkpt>
            <trkpt lon="101.332635" lat="13.699478">
                <ele>8.310000</ele>
                <time>2014-12-14T04:41:29Z</time>
            </trkpt>
            <trkpt lon="101.332627" lat="13.699507">
                <ele>7.830000</ele>
                <time>2014-12-14T04:41:30Z</time>
            </trkpt>
            <trkpt lon="101.332621" lat="13.699540">
                <ele>7.830000</ele>
                <time>2014-12-14T04:41:31Z</time>
            </trkpt>
            <trkpt lon="101.332583" lat="13.699713">
                <ele>8.310000</ele>
                <time>2014-12-14T04:41:37Z</time>
            </trkpt>
            <trkpt lon="101.332564" lat="13.699725">
                <ele>8.310000</ele>
                <time>2014-12-14T04:41:38Z</time>
            </trkpt>
            <trkpt lon="101.332513" lat="13.699734">
                <ele>8.310000</ele>
                <time>2014-12-14T04:41:40Z</time>
            </trkpt>
            <trkpt lon="101.332491" lat="13.699746">
                <ele>8.310000</ele>
                <time>2014-12-14T04:41:41Z</time>
            </trkpt>
            <trkpt lon="101.332472" lat="13.699769">
                <ele>8.310000</ele>
                <time>2014-12-14T04:41:42Z</time>
            </trkpt>
            <trkpt lon="101.332458" lat="13.699796">
                <ele>7.830000</ele>
                <time>2014-12-14T04:41:43Z</time>
            </trkpt>
            <trkpt lon="101.332438" lat="13.699824">
                <ele>8.310000</ele>
                <time>2014-12-14T04:41:44Z</time>
            </trkpt>
            <trkpt lon="101.332409" lat="13.699851">
                <ele>8.310000</ele>
                <time>2014-12-14T04:41:45Z</time>
            </trkpt>
            <trkpt lon="101.332376" lat="13.699877">
                <ele>8.310000</ele>
                <time>2014-12-14T04:41:46Z</time>
            </trkpt>
            <trkpt lon="101.332341" lat="13.699902">
                <ele>8.790000</ele>
                <time>2014-12-14T04:41:47Z</time>
            </trkpt>
            <trkpt lon="101.332186" lat="13.699997">
                <ele>8.790000</ele>
                <time>2014-12-14T04:41:51Z</time>
            </trkpt>
            <trkpt lon="101.331922" lat="13.700376">
                <ele>7.830000</ele>
                <time>2014-12-14T04:42:02Z</time>
            </trkpt>
            <trkpt lon="101.331687" lat="13.700636">
                <ele>7.830000</ele>
                <time>2014-12-14T04:42:09Z</time>
            </trkpt>
            <trkpt lon="101.331613" lat="13.700751">
                <ele>7.350000</ele>
                <time>2014-12-14T04:42:12Z</time>
            </trkpt>
            <trkpt lon="101.331599" lat="13.700794">
                <ele>7.350000</ele>
                <time>2014-12-14T04:42:13Z</time>
            </trkpt>
            <trkpt lon="101.331264" lat="13.701507">
                <ele>7.830000</ele>
                <time>2014-12-14T04:42:30Z</time>
            </trkpt>
            <trkpt lon="101.330967" lat="13.701951">
                <ele>7.830000</ele>
                <time>2014-12-14T04:42:41Z</time>
            </trkpt>
            <trkpt lon="101.330937" lat="13.701988">
                <ele>7.830000</ele>
                <time>2014-12-14T04:42:42Z</time>
            </trkpt>
            <trkpt lon="101.330902" lat="13.702023">
                <ele>7.830000</ele>
                <time>2014-12-14T04:42:43Z</time>
            </trkpt>
            <trkpt lon="101.330865" lat="13.702056">
                <ele>7.830000</ele>
                <time>2014-12-14T04:42:44Z</time>
            </trkpt>
            <trkpt lon="101.330826" lat="13.702087">
                <ele>7.830000</ele>
                <time>2014-12-14T04:42:45Z</time>
            </trkpt>
            <trkpt lon="101.330619" lat="13.702221">
                <ele>7.830000</ele>
                <time>2014-12-14T04:42:50Z</time>
            </trkpt>
            <trkpt lon="101.330574" lat="13.702238">
                <ele>7.830000</ele>
                <time>2014-12-14T04:42:51Z</time>
            </trkpt>
            <trkpt lon="101.330367" lat="13.702351">
                <ele>9.270000</ele>
                <time>2014-12-14T04:43:00Z</time>
            </trkpt>
            <trkpt lon="101.330426" lat="13.702826">
                <ele>8.790000</ele>
                <time>2014-12-14T04:43:12Z</time>
            </trkpt>
            <trkpt lon="101.330469" lat="13.703278">
                <ele>8.310000</ele>
                <time>2014-12-14T04:43:23Z</time>
            </trkpt>
            <trkpt lon="101.330443" lat="13.703299">
                <ele>8.310000</ele>
                <time>2014-12-14T04:43:24Z</time>
            </trkpt>
            <trkpt lon="101.330409" lat="13.703305">
                <ele>7.830000</ele>
                <time>2014-12-14T04:43:25Z</time>
            </trkpt>
            <trkpt lon="101.330373" lat="13.703302">
                <ele>7.350000</ele>
                <time>2014-12-14T04:43:26Z</time>
            </trkpt>
            <trkpt lon="101.330331" lat="13.703297">
                <ele>7.350000</ele>
                <time>2014-12-14T04:43:27Z</time>
            </trkpt>
            <trkpt lon="101.329633" lat="13.703254">
                <ele>6.870000</ele>
                <time>2014-12-14T04:43:41Z</time>
            </trkpt>
            <trkpt lon="101.328575" lat="13.703164">
                <ele>6.390000</ele>
                <time>2014-12-14T04:44:00Z</time>
            </trkpt>
            <trkpt lon="101.327589" lat="13.703057">
                <ele>6.870000</ele>
                <time>2014-12-14T04:44:17Z</time>
            </trkpt>
            <trkpt lon="101.326625" lat="13.702980">
                <ele>6.390000</ele>
                <time>2014-12-14T04:44:34Z</time>
            </trkpt>
            <trkpt lon="101.326574" lat="13.702960">
                <ele>6.390000</ele>
                <time>2014-12-14T04:44:35Z</time>
            </trkpt>
            <trkpt lon="101.325565" lat="13.702583">
                <ele>6.390000</ele>
                <time>2014-12-14T04:44:54Z</time>
            </trkpt>
            <trkpt lon="101.324760" lat="13.702155">
                <ele>7.350000</ele>
                <time>2014-12-14T04:45:10Z</time>
            </trkpt>
            <trkpt lon="101.324137" lat="13.701923">
                <ele>7.350000</ele>
                <time>2014-12-14T04:45:22Z</time>
            </trkpt>
            <trkpt lon="101.323445" lat="13.701843">
                <ele>7.350000</ele>
                <time>2014-12-14T04:45:35Z</time>
            </trkpt>
            <trkpt lon="101.323258" lat="13.701849">
                <ele>8.310000</ele>
                <time>2014-12-14T04:45:39Z</time>
            </trkpt>
            <trkpt lon="101.323211" lat="13.701862">
                <ele>8.310000</ele>
                <time>2014-12-14T04:45:40Z</time>
            </trkpt>
            <trkpt lon="101.323166" lat="13.701882">
                <ele>8.310000</ele>
                <time>2014-12-14T04:45:41Z</time>
            </trkpt>
            <trkpt lon="101.323122" lat="13.701905">
                <ele>8.310000</ele>
                <time>2014-12-14T04:45:42Z</time>
            </trkpt>
            <trkpt lon="101.322979" lat="13.702001">
                <ele>8.310000</ele>
                <time>2014-12-14T04:45:45Z</time>
            </trkpt>
            <trkpt lon="101.322854" lat="13.702154">
                <ele>7.830000</ele>
                <time>2014-12-14T04:45:49Z</time>
            </trkpt>
            <trkpt lon="101.322725" lat="13.702652">
                <ele>9.750000</ele>
                <time>2014-12-14T04:46:02Z</time>
            </trkpt>
            <trkpt lon="101.322715" lat="13.702724">
                <ele>9.270000</ele>
                <time>2014-12-14T04:46:04Z</time>
            </trkpt>
            <trkpt lon="101.322618" lat="13.703085">
                <ele>7.350000</ele>
                <time>2014-12-14T04:46:11Z</time>
            </trkpt>
            <trkpt lon="101.322614" lat="13.703133">
                <ele>7.350000</ele>
                <time>2014-12-14T04:46:12Z</time>
            </trkpt>
            <trkpt lon="101.322621" lat="13.703183">
                <ele>7.350000</ele>
                <time>2014-12-14T04:46:13Z</time>
            </trkpt>
            <trkpt lon="101.322641" lat="13.703228">
                <ele>7.350000</ele>
                <time>2014-12-14T04:46:14Z</time>
            </trkpt>
            <trkpt lon="101.322668" lat="13.703267">
                <ele>7.350000</ele>
                <time>2014-12-14T04:46:15Z</time>
            </trkpt>
            <trkpt lon="101.322699" lat="13.703302">
                <ele>7.350000</ele>
                <time>2014-12-14T04:46:16Z</time>
            </trkpt>
            <trkpt lon="101.322734" lat="13.703331">
                <ele>7.350000</ele>
                <time>2014-12-14T04:46:17Z</time>
            </trkpt>
            <trkpt lon="101.322773" lat="13.703354">
                <ele>7.350000</ele>
                <time>2014-12-14T04:46:18Z</time>
            </trkpt>
            <trkpt lon="101.322815" lat="13.703375">
                <ele>7.350000</ele>
                <time>2014-12-14T04:46:19Z</time>
            </trkpt>
            <trkpt lon="101.323208" lat="13.703573">
                <ele>8.310000</ele>
                <time>2014-12-14T04:46:28Z</time>
            </trkpt>
            <trkpt lon="101.323249" lat="13.703603">
                <ele>8.310000</ele>
                <time>2014-12-14T04:46:29Z</time>
            </trkpt>
            <trkpt lon="101.323813" lat="13.704017">
                <ele>8.310000</ele>
                <time>2014-12-14T04:46:44Z</time>
            </trkpt>
            <trkpt lon="101.323940" lat="13.704071">
                <ele>8.310000</ele>
                <time>2014-12-14T04:46:47Z</time>
            </trkpt>
            <trkpt lon="101.324388" lat="13.704148">
                <ele>7.350000</ele>
                <time>2014-12-14T04:46:56Z</time>
            </trkpt>
            <trkpt lon="101.324438" lat="13.704147">
                <ele>7.350000</ele>
                <time>2014-12-14T04:46:57Z</time>
            </trkpt>
            <trkpt lon="101.325070" lat="13.704234">
                <ele>7.350000</ele>
                <time>2014-12-14T04:47:10Z</time>
            </trkpt>
            <trkpt lon="101.325101" lat="13.704263">
                <ele>7.350000</ele>
                <time>2014-12-14T04:47:11Z</time>
            </trkpt>
            <trkpt lon="101.325116" lat="13.704301">
                <ele>7.350000</ele>
                <time>2014-12-14T04:47:12Z</time>
            </trkpt>
            <trkpt lon="101.325114" lat="13.704343">
                <ele>7.350000</ele>
                <time>2014-12-14T04:47:13Z</time>
            </trkpt>
            <trkpt lon="101.325103" lat="13.704386">
                <ele>7.350000</ele>
                <time>2014-12-14T04:47:14Z</time>
            </trkpt>
            <trkpt lon="101.325088" lat="13.704429">
                <ele>7.830000</ele>
                <time>2014-12-14T04:47:15Z</time>
            </trkpt>
            <trkpt lon="101.324981" lat="13.704696">
                <ele>8.310000</ele>
                <time>2014-12-14T04:47:21Z</time>
            </trkpt>
            <trkpt lon="101.324973" lat="13.704744">
                <ele>8.310000</ele>
                <time>2014-12-14T04:47:22Z</time>
            </trkpt>
            <trkpt lon="101.324976" lat="13.704790">
                <ele>8.310000</ele>
                <time>2014-12-14T04:47:23Z</time>
            </trkpt>
            <trkpt lon="101.324996" lat="13.704829">
                <ele>8.790000</ele>
                <time>2014-12-14T04:47:24Z</time>
            </trkpt>
            <trkpt lon="101.325028" lat="13.704864">
                <ele>8.790000</ele>
                <time>2014-12-14T04:47:25Z</time>
            </trkpt>
            <trkpt lon="101.325069" lat="13.704889">
                <ele>8.790000</ele>
                <time>2014-12-14T04:47:26Z</time>
            </trkpt>
            <trkpt lon="101.325114" lat="13.704913">
                <ele>8.790000</ele>
                <time>2014-12-14T04:47:27Z</time>
            </trkpt>
            <trkpt lon="101.325161" lat="13.704934">
                <ele>8.790000</ele>
                <time>2014-12-14T04:47:28Z</time>
            </trkpt>
            <trkpt lon="101.325210" lat="13.704954">
                <ele>8.790000</ele>
                <time>2014-12-14T04:47:29Z</time>
            </trkpt>
            <trkpt lon="101.326023" lat="13.705260">
                <ele>8.310000</ele>
                <time>2014-12-14T04:47:45Z</time>
            </trkpt>
            <trkpt lon="101.326115" lat="13.705313">
                <ele>7.830000</ele>
                <time>2014-12-14T04:47:47Z</time>
            </trkpt>
            <trkpt lon="101.326573" lat="13.705687">
                <ele>7.830000</ele>
                <time>2014-12-14T04:48:00Z</time>
            </trkpt>
            <trkpt lon="101.326642" lat="13.705744">
                <ele>7.830000</ele>
                <time>2014-12-14T04:48:02Z</time>
            </trkpt>
            <trkpt lon="101.327280" lat="13.706199">
                <ele>8.310000</ele>
                <time>2014-12-14T04:48:18Z</time>
            </trkpt>
            <trkpt lon="101.327312" lat="13.706228">
                <ele>7.830000</ele>
                <time>2014-12-14T04:48:19Z</time>
            </trkpt>
            <trkpt lon="101.327342" lat="13.706261">
                <ele>7.830000</ele>
                <time>2014-12-14T04:48:20Z</time>
            </trkpt>
            <trkpt lon="101.327369" lat="13.706298">
                <ele>7.830000</ele>
                <time>2014-12-14T04:48:21Z</time>
            </trkpt>
            <trkpt lon="101.327396" lat="13.706337">
                <ele>7.830000</ele>
                <time>2014-12-14T04:48:22Z</time>
            </trkpt>
            <trkpt lon="101.327640" lat="13.706895">
                <ele>8.310000</ele>
                <time>2014-12-14T04:48:35Z</time>
            </trkpt>
            <trkpt lon="101.327630" lat="13.706919">
                <ele>7.830000</ele>
                <time>2014-12-14T04:48:36Z</time>
            </trkpt>
            <trkpt lon="101.327614" lat="13.706942">
                <ele>7.830000</ele>
                <time>2014-12-14T04:48:37Z</time>
            </trkpt>
            <trkpt lon="101.327381" lat="13.707289">
                <ele>7.830000</ele>
                <time>2014-12-14T04:48:48Z</time>
            </trkpt>
            <trkpt lon="101.327227" lat="13.707310">
                <ele>7.830000</ele>
                <time>2014-12-14T04:48:52Z</time>
            </trkpt>
            <trkpt lon="101.326975" lat="13.707258">
                <ele>7.830000</ele>
                <time>2014-12-14T04:48:58Z</time>
            </trkpt>
            <trkpt lon="101.326823" lat="13.707618">
                <ele>7.830000</ele>
                <time>2014-12-14T04:49:08Z</time>
            </trkpt>
            <trkpt lon="101.326707" lat="13.707959">
                <ele>7.350000</ele>
                <time>2014-12-14T04:49:16Z</time>
            </trkpt>
            <trkpt lon="101.326710" lat="13.708298">
                <ele>7.350000</ele>
                <time>2014-12-14T04:49:24Z</time>
            </trkpt>
            <trkpt lon="101.326615" lat="13.708780">
                <ele>6.870000</ele>
                <time>2014-12-14T04:49:35Z</time>
            </trkpt>
            <trkpt lon="101.326474" lat="13.708858">
                <ele>6.870000</ele>
                <time>2014-12-14T04:49:40Z</time>
            </trkpt>
            <trkpt lon="101.326359" lat="13.708834">
                <ele>6.870000</ele>
                <time>2014-12-14T04:49:43Z</time>
            </trkpt>
            <trkpt lon="101.326128" lat="13.708966">
                <ele>6.870000</ele>
                <time>2014-12-14T04:49:51Z</time>
            </trkpt>
            <trkpt lon="101.326087" lat="13.709159">
                <ele>7.350000</ele>
                <time>2014-12-14T04:49:56Z</time>
            </trkpt>
            <trkpt lon="101.325962" lat="13.709165">
                <ele>6.870000</ele>
                <time>2014-12-14T04:50:01Z</time>
            </trkpt>
            <trkpt lon="101.325770" lat="13.709109">
                <ele>7.350000</ele>
                <time>2014-12-14T04:50:06Z</time>
            </trkpt>
            <trkpt lon="101.325249" lat="13.708997">
                <ele>7.350000</ele>
                <time>2014-12-14T04:50:18Z</time>
            </trkpt>
            <trkpt lon="101.325095" lat="13.708902">
                <ele>7.830000</ele>
                <time>2014-12-14T04:50:26Z</time>
            </trkpt>
            <trkpt lon="101.325114" lat="13.709082">
                <ele>7.350000</ele>
                <time>2014-12-14T04:50:31Z</time>
            </trkpt>
            <trkpt lon="101.325261" lat="13.710072">
                <ele>8.310000</ele>
                <time>2014-12-14T04:50:52Z</time>
            </trkpt>
            <trkpt lon="101.325413" lat="13.711075">
                <ele>7.830000</ele>
                <time>2014-12-14T04:51:12Z</time>
            </trkpt>
            <trkpt lon="101.325552" lat="13.712024">
                <ele>7.830000</ele>
                <time>2014-12-14T04:51:31Z</time>
            </trkpt>
            <trkpt lon="101.325598" lat="13.712326">
                <ele>7.830000</ele>
                <time>2014-12-14T04:51:37Z</time>
            </trkpt>
            <trkpt lon="101.325721" lat="13.713170">
                <ele>8.310000</ele>
                <time>2014-12-14T04:51:54Z</time>
            </trkpt>
            <trkpt lon="101.325878" lat="13.714266">
                <ele>8.310000</ele>
                <time>2014-12-14T04:52:16Z</time>
            </trkpt>
            <trkpt lon="101.325980" lat="13.715002">
                <ele>7.830000</ele>
                <time>2014-12-14T04:52:33Z</time>
            </trkpt>
            <trkpt lon="101.326104" lat="13.715872">
                <ele>7.350000</ele>
                <time>2014-12-14T04:52:51Z</time>
            </trkpt>
            <trkpt lon="101.326228" lat="13.716704">
                <ele>6.390000</ele>
                <time>2014-12-14T04:53:08Z</time>
            </trkpt>
            <trkpt lon="101.326357" lat="13.717598">
                <ele>6.390000</ele>
                <time>2014-12-14T04:53:27Z</time>
            </trkpt>
            <trkpt lon="101.326416" lat="13.718003">
                <ele>6.390000</ele>
                <time>2014-12-14T04:53:36Z</time>
            </trkpt>
            <trkpt lon="101.326492" lat="13.718513">
                <ele>6.870000</ele>
                <time>2014-12-14T04:53:47Z</time>
            </trkpt>
            <trkpt lon="101.326594" lat="13.719242">
                <ele>6.870000</ele>
                <time>2014-12-14T04:54:04Z</time>
            </trkpt>
            <trkpt lon="101.326676" lat="13.719566">
                <ele>6.870000</ele>
                <time>2014-12-14T04:54:12Z</time>
            </trkpt>
            <trkpt lon="101.327325" lat="13.720282">
                <ele>7.830000</ele>
                <time>2014-12-14T04:54:33Z</time>
            </trkpt>
            <trkpt lon="101.327853" lat="13.720865">
                <ele>8.790000</ele>
                <time>2014-12-14T04:54:50Z</time>
            </trkpt>
            <trkpt lon="101.328411" lat="13.721459">
                <ele>9.270000</ele>
                <time>2014-12-14T04:55:07Z</time>
            </trkpt>
            <trkpt lon="101.329005" lat="13.722093">
                <ele>8.790000</ele>
                <time>2014-12-14T04:55:25Z</time>
            </trkpt>
            <trkpt lon="101.329609" lat="13.722756">
                <ele>9.270000</ele>
                <time>2014-12-14T04:55:43Z</time>
            </trkpt>
            <trkpt lon="101.330087" lat="13.723249">
                <ele>9.750000</ele>
                <time>2014-12-14T04:55:59Z</time>
            </trkpt>
            <trkpt lon="101.330666" lat="13.723866">
                <ele>9.750000</ele>
                <time>2014-12-14T04:56:17Z</time>
            </trkpt>
            <trkpt lon="101.330885" lat="13.724115">
                <ele>9.270000</ele>
                <time>2014-12-14T04:56:24Z</time>
            </trkpt>
            <trkpt lon="101.331544" lat="13.724806">
                <ele>9.270000</ele>
                <time>2014-12-14T04:56:44Z</time>
            </trkpt>
            <trkpt lon="101.332126" lat="13.725430">
                <ele>9.270000</ele>
                <time>2014-12-14T04:57:01Z</time>
            </trkpt>
            <trkpt lon="101.332565" lat="13.725911">
                <ele>9.750000</ele>
                <time>2014-12-14T04:57:15Z</time>
            </trkpt>
            <trkpt lon="101.333045" lat="13.726426">
                <ele>9.750000</ele>
                <time>2014-12-14T04:57:32Z</time>
            </trkpt>
            <trkpt lon="101.333562" lat="13.726921">
                <ele>9.750000</ele>
                <time>2014-12-14T04:57:51Z</time>
            </trkpt>
            <trkpt lon="101.333971" lat="13.727149">
                <ele>10.230000</ele>
                <time>2014-12-14T04:58:04Z</time>
            </trkpt>
            <trkpt lon="101.334579" lat="13.727296">
                <ele>9.750000</ele>
                <time>2014-12-14T04:58:19Z</time>
            </trkpt>
            <trkpt lon="101.334842" lat="13.727316">
                <ele>9.750000</ele>
                <time>2014-12-14T04:58:24Z</time>
            </trkpt>
            <trkpt lon="101.334930" lat="13.727307">
                <ele>9.750000</ele>
                <time>2014-12-14T04:58:26Z</time>
            </trkpt>
            <trkpt lon="101.335803" lat="13.727286">
                <ele>9.270000</ele>
                <time>2014-12-14T04:58:44Z</time>
            </trkpt>
            <trkpt lon="101.336296" lat="13.727384">
                <ele>9.750000</ele>
                <time>2014-12-14T04:58:57Z</time>
            </trkpt>
            <trkpt lon="101.336405" lat="13.727873">
                <ele>9.750000</ele>
                <time>2014-12-14T04:59:08Z</time>
            </trkpt>
            <trkpt lon="101.336628" lat="13.728730">
                <ele>10.230000</ele>
                <time>2014-12-14T04:59:26Z</time>
            </trkpt>
            <trkpt lon="101.336868" lat="13.729629">
                <ele>10.710000</ele>
                <time>2014-12-14T04:59:44Z</time>
            </trkpt>
            <trkpt lon="101.337129" lat="13.730623">
                <ele>10.230000</ele>
                <time>2014-12-14T05:00:02Z</time>
            </trkpt>
            <trkpt lon="101.337395" lat="13.731646">
                <ele>10.230000</ele>
                <time>2014-12-14T05:00:21Z</time>
            </trkpt>
            <trkpt lon="101.337682" lat="13.732741">
                <ele>10.230000</ele>
                <time>2014-12-14T05:00:41Z</time>
            </trkpt>
            <trkpt lon="101.337981" lat="13.733859">
                <ele>11.190000</ele>
                <time>2014-12-14T05:01:02Z</time>
            </trkpt>
            <trkpt lon="101.338047" lat="13.734116">
                <ele>11.190000</ele>
                <time>2014-12-14T05:01:07Z</time>
            </trkpt>
            <trkpt lon="101.338139" lat="13.734340">
                <ele>11.670000</ele>
                <time>2014-12-14T05:01:12Z</time>
            </trkpt>
            <trkpt lon="101.338164" lat="13.734376">
                <ele>11.670000</ele>
                <time>2014-12-14T05:01:13Z</time>
            </trkpt>
            <trkpt lon="101.338195" lat="13.734400">
                <ele>11.670000</ele>
                <time>2014-12-14T05:01:14Z</time>
            </trkpt>
            <trkpt lon="101.338227" lat="13.734410">
                <ele>11.190000</ele>
                <time>2014-12-14T05:01:15Z</time>
            </trkpt>
            <trkpt lon="101.338298" lat="13.734419">
                <ele>10.710000</ele>
                <time>2014-12-14T05:01:18Z</time>
            </trkpt>
            <trkpt lon="101.338386" lat="13.734647">
                <ele>11.670000</ele>
                <time>2014-12-14T05:01:32Z</time>
            </trkpt>
        </trkseg>
    </trk>
</gpx>